<?xml version="1.0" encoding="UTF-8" standalone="no" ?>
<gpx xmlns="http://www.topografix.com/GPX/1/1" xmlns:xsi="http://www.w3.org/2001/XMLSchema-instance" xsi:schemaLocation="http://www.topografix.com/GPX/1/1 http://www.topografix.com/GPX/1/1/gpx.xsd" version="1.1" creator="VisuGPX - https://www.visugpx.com">
  <metadata>
    <name>Circuit parisien</name>
    <desc><![CDATA[Itinéraire intégrant le parc du luxembourg, la trouée verte et le parc de Vincennes ]]></desc>
  </metadata>
  <wpt lat="48.84671" lon="2.34052">
    <ele>108</ele>
    <name><![CDATA[WPT001]]></name>
    <desc><![CDATA[]]></desc>
    <type><![CDATA[Photo]]></type>
  </wpt>
  <wpt lat="48.83908" lon="2.40641">
    <ele>45</ele>
    <name><![CDATA[WPT002]]></name>
    <desc><![CDATA[]]></desc>
    <type><![CDATA[Photo]]></type>
  </wpt>
  <trk>
    <name><![CDATA[paris]]></name>
    <desc><![CDATA[<h1>OruxMaps</h1><br /><hr align="center" width="480" style="height: 2px; width: 517px"/><h2>Nom: paris</h2><br /><p>Temps de départ: 08/14/2012 09:39</p><p>Temps d'arrivée: 08/14/2012 17:19</p><p>Distance: 21 km (07:40)</p><p>Temps déplacement: 05:33</p><p>Vitesse moyenne: 2,7 km/h</p><p>Vitesse moyenne: 3,8 km/h</p><p>Vitess Max.: 17,2 km/h</p><p>Altitude minimale: 56 m</p><p>Altitude maximale: 141 m</p><p>Vitesse d'élévation: 140,7 m/h</p><p>Vitesse de descente: -139,6 m/h</p><p>Gain Altitude: 338 m</p><p>Perte Altitude: -374 m</p><p>Temps d'élévation: 02:24</p><p>Temps de descente: 02:40</p><hr align="center" width="480" style="height: 2px; width: 517px"/>]]></desc>
    <trkseg>
      <trkpt lat="48.84649" lon="2.34059">
        <ele>112.92066</ele>
        <time>2012-08-14T07:39:29Z</time>
      </trkpt>
      <trkpt lat="48.84667" lon="2.34051">
        <ele>105.06563</ele>
        <time>2012-08-14T07:39:37Z</time>
      </trkpt>
      <trkpt lat="48.84679" lon="2.34031">
        <ele>110.27387</ele>
        <time>2012-08-14T07:40:44Z</time>
      </trkpt>
      <trkpt lat="48.84697" lon="2.34026">
        <ele>106.90884</ele>
        <time>2012-08-14T07:41:49Z</time>
      </trkpt>
      <trkpt lat="48.84716" lon="2.34026">
        <ele>107.79554</ele>
        <time>2012-08-14T07:42:10Z</time>
      </trkpt>
      <trkpt lat="48.84734" lon="2.34016">
        <ele>102.28088</ele>
        <time>2012-08-14T07:42:27Z</time>
      </trkpt>
      <trkpt lat="48.8475" lon="2.34002">
        <ele>97.49883</ele>
        <time>2012-08-14T07:42:42Z</time>
      </trkpt>
      <trkpt lat="48.84767" lon="2.33992">
        <ele>95.80329</ele>
        <time>2012-08-14T07:42:56Z</time>
      </trkpt>
      <trkpt lat="48.84776" lon="2.33968">
        <ele>100.282906</ele>
        <time>2012-08-14T07:43:23Z</time>
      </trkpt>
      <trkpt lat="48.84793" lon="2.33956">
        <ele>97.85306</ele>
        <time>2012-08-14T07:43:37Z</time>
      </trkpt>
      <trkpt lat="48.84806" lon="2.33938">
        <ele>95.25953</ele>
        <time>2012-08-14T07:43:49Z</time>
      </trkpt>
      <trkpt lat="48.84809" lon="2.33911">
        <ele>95.414085</ele>
        <time>2012-08-14T07:44:32Z</time>
      </trkpt>
      <trkpt lat="48.84811" lon="2.33883">
        <ele>93.67491</ele>
        <time>2012-08-14T07:44:47Z</time>
      </trkpt>
      <trkpt lat="48.84808" lon="2.33855">
        <ele>88.95361</ele>
        <time>2012-08-14T07:44:59Z</time>
      </trkpt>
      <trkpt lat="48.84796" lon="2.33834">
        <ele>83.31528</ele>
        <time>2012-08-14T07:45:30Z</time>
      </trkpt>
      <trkpt lat="48.84785" lon="2.33811">
        <ele>85.29667</ele>
        <time>2012-08-14T07:45:42Z</time>
      </trkpt>
      <trkpt lat="48.84777" lon="2.33786">
        <ele>92.6516</ele>
        <time>2012-08-14T07:45:55Z</time>
      </trkpt>
      <trkpt lat="48.84779" lon="2.33758">
        <ele>95.44085</ele>
        <time>2012-08-14T07:46:10Z</time>
      </trkpt>
      <trkpt lat="48.84778" lon="2.33729">
        <ele>96.743286</ele>
        <time>2012-08-14T07:46:37Z</time>
      </trkpt>
      <trkpt lat="48.84773" lon="2.33703">
        <ele>92.709724</ele>
        <time>2012-08-14T07:47:09Z</time>
      </trkpt>
      <trkpt lat="48.84778" lon="2.33674">
        <ele>94.56563</ele>
        <time>2012-08-14T07:47:25Z</time>
      </trkpt>
      <trkpt lat="48.84786" lon="2.33648">
        <ele>96.334854</ele>
        <time>2012-08-14T07:47:36Z</time>
      </trkpt>
      <trkpt lat="48.84801" lon="2.33628">
        <ele>94.53318</ele>
        <time>2012-08-14T07:47:50Z</time>
      </trkpt>
      <trkpt lat="48.84811" lon="2.33603">
        <ele>89.95592</ele>
        <time>2012-08-14T07:48:20Z</time>
      </trkpt>
      <trkpt lat="48.84815" lon="2.33576">
        <ele>91.05493</ele>
        <time>2012-08-14T07:48:31Z</time>
      </trkpt>
      <trkpt lat="48.84814" lon="2.33603">
        <ele>79.9943</ele>
        <time>2012-08-14T07:50:47Z</time>
      </trkpt>
      <trkpt lat="48.84802" lon="2.33624">
        <ele>84.0548</ele>
        <time>2012-08-14T07:51:03Z</time>
      </trkpt>
      <trkpt lat="48.84786" lon="2.3364">
        <ele>89.29872</ele>
        <time>2012-08-14T07:51:15Z</time>
      </trkpt>
      <trkpt lat="48.84778" lon="2.33666">
        <ele>89.67219</ele>
        <time>2012-08-14T07:51:34Z</time>
      </trkpt>
      <trkpt lat="48.84762" lon="2.3368">
        <ele>88.704544</ele>
        <time>2012-08-14T07:51:50Z</time>
      </trkpt>
      <trkpt lat="48.84744" lon="2.33682">
        <ele>86.56208</ele>
        <time>2012-08-14T07:52:07Z</time>
      </trkpt>
      <trkpt lat="48.84726" lon="2.33686">
        <ele>89.407455</ele>
        <time>2012-08-14T07:52:24Z</time>
      </trkpt>
      <trkpt lat="48.84709" lon="2.33676">
        <ele>92.1962</ele>
        <time>2012-08-14T07:52:39Z</time>
      </trkpt>
      <trkpt lat="48.8469" lon="2.33671">
        <ele>90.86926</ele>
        <time>2012-08-14T07:52:56Z</time>
      </trkpt>
      <trkpt lat="48.84674" lon="2.33685">
        <ele>91.10627</ele>
        <time>2012-08-14T07:53:15Z</time>
      </trkpt>
      <trkpt lat="48.84656" lon="2.33682">
        <ele>94.16311</ele>
        <time>2012-08-14T07:54:47Z</time>
      </trkpt>
      <trkpt lat="48.84639" lon="2.33668">
        <ele>92.15529</ele>
        <time>2012-08-14T07:55:03Z</time>
      </trkpt>
      <trkpt lat="48.84635" lon="2.33641">
        <ele>99.32508</ele>
        <time>2012-08-14T07:55:27Z</time>
      </trkpt>
      <trkpt lat="48.84636" lon="2.33612">
        <ele>98.98421</ele>
        <time>2012-08-14T07:55:43Z</time>
      </trkpt>
      <trkpt lat="48.84639" lon="2.33584">
        <ele>101.67792</ele>
        <time>2012-08-14T07:56:02Z</time>
      </trkpt>
      <trkpt lat="48.8464" lon="2.33557">
        <ele>101.259026</ele>
        <time>2012-08-14T07:56:17Z</time>
      </trkpt>
      <trkpt lat="48.84642" lon="2.33529">
        <ele>98.44547</ele>
        <time>2012-08-14T07:56:38Z</time>
      </trkpt>
      <trkpt lat="48.84643" lon="2.335">
        <ele>95.93063</ele>
        <time>2012-08-14T07:56:59Z</time>
      </trkpt>
      <trkpt lat="48.84644" lon="2.33472">
        <ele>100.12428</ele>
        <time>2012-08-14T07:57:17Z</time>
      </trkpt>
      <trkpt lat="48.84646" lon="2.33444">
        <ele>100.20368</ele>
        <time>2012-08-14T07:57:33Z</time>
      </trkpt>
      <trkpt lat="48.84647" lon="2.33416">
        <ele>99.6038</ele>
        <time>2012-08-14T07:57:44Z</time>
      </trkpt>
      <trkpt lat="48.84634" lon="2.33395">
        <ele>94.56611</ele>
        <time>2012-08-14T07:58:47Z</time>
      </trkpt>
      <trkpt lat="48.84644" lon="2.3337">
        <ele>94.65885</ele>
        <time>2012-08-14T08:03:11Z</time>
      </trkpt>
      <trkpt lat="48.84646" lon="2.33342">
        <ele>95.36631</ele>
        <time>2012-08-14T08:03:24Z</time>
      </trkpt>
      <trkpt lat="48.84655" lon="2.33317">
        <ele>95.380684</ele>
        <time>2012-08-14T08:04:30Z</time>
      </trkpt>
      <trkpt lat="48.84671" lon="2.33304">
        <ele>97.90516</ele>
        <time>2012-08-14T08:04:44Z</time>
      </trkpt>
      <trkpt lat="48.84686" lon="2.33286">
        <ele>94.96894</ele>
        <time>2012-08-14T08:05:00Z</time>
      </trkpt>
      <trkpt lat="48.84701" lon="2.33304">
        <ele>94.49899</ele>
        <time>2012-08-14T08:05:25Z</time>
      </trkpt>
      <trkpt lat="48.84701" lon="2.33333">
        <ele>96.45062</ele>
        <time>2012-08-14T08:05:40Z</time>
      </trkpt>
      <trkpt lat="48.84706" lon="2.3336">
        <ele>94.32506</ele>
        <time>2012-08-14T08:06:00Z</time>
      </trkpt>
      <trkpt lat="48.84724" lon="2.33368">
        <ele>90.36591</ele>
        <time>2012-08-14T08:06:12Z</time>
      </trkpt>
      <trkpt lat="48.84742" lon="2.33367">
        <ele>89.36956</ele>
        <time>2012-08-14T08:06:25Z</time>
      </trkpt>
      <trkpt lat="48.84761" lon="2.33368">
        <ele>87.30263</ele>
        <time>2012-08-14T08:06:41Z</time>
      </trkpt>
      <trkpt lat="48.84779" lon="2.33368">
        <ele>89.10517</ele>
        <time>2012-08-14T08:06:56Z</time>
      </trkpt>
      <trkpt lat="48.84797" lon="2.33373">
        <ele>87.63092</ele>
        <time>2012-08-14T08:07:13Z</time>
      </trkpt>
      <trkpt lat="48.84816" lon="2.33365">
        <ele>90.50576</ele>
        <time>2012-08-14T08:13:11Z</time>
      </trkpt>
      <trkpt lat="48.84835" lon="2.33366">
        <ele>87.50741</ele>
        <time>2012-08-14T08:13:30Z</time>
      </trkpt>
      <trkpt lat="48.84854" lon="2.3337">
        <ele>87.616455</ele>
        <time>2012-08-14T08:13:40Z</time>
      </trkpt>
      <trkpt lat="48.84872" lon="2.33375">
        <ele>89.747</ele>
        <time>2012-08-14T08:13:54Z</time>
      </trkpt>
      <trkpt lat="48.84888" lon="2.3336">
        <ele>85.8216</ele>
        <time>2012-08-14T08:14:16Z</time>
      </trkpt>
      <trkpt lat="48.84888" lon="2.33332">
        <ele>86.371254</ele>
        <time>2012-08-14T08:14:31Z</time>
      </trkpt>
      <trkpt lat="48.84878" lon="2.33309">
        <ele>89.333725</ele>
        <time>2012-08-14T08:14:42Z</time>
      </trkpt>
      <trkpt lat="48.8489" lon="2.33289">
        <ele>105.34332</ele>
        <time>2012-08-14T08:15:34Z</time>
      </trkpt>
      <trkpt lat="48.84909" lon="2.33288">
        <ele>109.04206</ele>
        <time>2012-08-14T08:15:47Z</time>
      </trkpt>
      <trkpt lat="48.84927" lon="2.33282">
        <ele>110.38913</ele>
        <time>2012-08-14T08:15:56Z</time>
      </trkpt>
      <trkpt lat="48.84945" lon="2.33278">
        <ele>119.54084</ele>
        <time>2012-08-14T08:16:29Z</time>
      </trkpt>
      <trkpt lat="48.84964" lon="2.33273">
        <ele>119.150444</ele>
        <time>2012-08-14T08:16:39Z</time>
      </trkpt>
      <trkpt lat="48.84983" lon="2.33276">
        <ele>119.29426</ele>
        <time>2012-08-14T08:16:52Z</time>
      </trkpt>
      <trkpt lat="48.85001" lon="2.33268">
        <ele>120.383606</ele>
        <time>2012-08-14T08:17:04Z</time>
      </trkpt>
      <trkpt lat="48.8502" lon="2.33265">
        <ele>121.71541</ele>
        <time>2012-08-14T08:17:19Z</time>
      </trkpt>
      <trkpt lat="48.85037" lon="2.33276">
        <ele>113.389046</ele>
        <time>2012-08-14T08:17:33Z</time>
      </trkpt>
      <trkpt lat="48.85053" lon="2.3329">
        <ele>110.458275</ele>
        <time>2012-08-14T08:17:48Z</time>
      </trkpt>
      <trkpt lat="48.85067" lon="2.3331">
        <ele>106.6371</ele>
        <time>2012-08-14T08:17:59Z</time>
      </trkpt>
      <trkpt lat="48.85072" lon="2.33337">
        <ele>101.9549</ele>
        <time>2012-08-14T08:19:38Z</time>
      </trkpt>
      <trkpt lat="48.85074" lon="2.33365">
        <ele>92.23606</ele>
        <time>2012-08-14T08:20:09Z</time>
      </trkpt>
      <trkpt lat="48.85091" lon="2.33376">
        <ele>86.21436</ele>
        <time>2012-08-14T08:20:32Z</time>
      </trkpt>
      <trkpt lat="48.85088" lon="2.33403">
        <ele>84.40952</ele>
        <time>2012-08-14T08:21:14Z</time>
      </trkpt>
      <trkpt lat="48.85114" lon="2.3348">
        <ele>84.55</ele>
        <time>2012-08-14T08:23:37Z</time>
      </trkpt>
      <trkpt lat="48.85101" lon="2.335">
        <ele>83.54164</ele>
        <time>2012-08-14T08:23:48Z</time>
      </trkpt>
      <trkpt lat="48.85092" lon="2.33463">
        <ele>83.32342</ele>
        <time>2012-08-14T08:23:50Z</time>
      </trkpt>
      <trkpt lat="48.85088" lon="2.33422">
        <ele>83.79318</ele>
        <time>2012-08-14T08:23:56Z</time>
      </trkpt>
      <trkpt lat="48.85121" lon="2.33385">
        <ele>89.93016</ele>
        <time>2012-08-14T08:24:35Z</time>
      </trkpt>
      <trkpt lat="48.85138" lon="2.33374">
        <ele>90.52953</ele>
        <time>2012-08-14T08:25:00Z</time>
      </trkpt>
      <trkpt lat="48.85155" lon="2.33365">
        <ele>93.077126</ele>
        <time>2012-08-14T08:25:14Z</time>
      </trkpt>
      <trkpt lat="48.85173" lon="2.33361">
        <ele>92.53245</ele>
        <time>2012-08-14T08:25:33Z</time>
      </trkpt>
      <trkpt lat="48.8518" lon="2.33387">
        <ele>90.486145</ele>
        <time>2012-08-14T08:26:05Z</time>
      </trkpt>
      <trkpt lat="48.85173" lon="2.33413">
        <ele>89.27658</ele>
        <time>2012-08-14T08:26:24Z</time>
      </trkpt>
      <trkpt lat="48.85163" lon="2.33436">
        <ele>89.33384</ele>
        <time>2012-08-14T08:26:39Z</time>
      </trkpt>
      <trkpt lat="48.85172" lon="2.33461">
        <ele>83.192184</ele>
        <time>2012-08-14T08:26:57Z</time>
      </trkpt>
      <trkpt lat="48.85171" lon="2.3349">
        <ele>79.57512</ele>
        <time>2012-08-14T08:27:13Z</time>
      </trkpt>
      <trkpt lat="48.85185" lon="2.33508">
        <ele>79.7366</ele>
        <time>2012-08-14T08:27:24Z</time>
      </trkpt>
      <trkpt lat="48.85195" lon="2.33531">
        <ele>77.970856</ele>
        <time>2012-08-14T08:27:43Z</time>
      </trkpt>
      <trkpt lat="48.85214" lon="2.3353">
        <ele>81.69234</ele>
        <time>2012-08-14T08:27:56Z</time>
      </trkpt>
      <trkpt lat="48.85232" lon="2.33528">
        <ele>86.69035</ele>
        <time>2012-08-14T08:28:18Z</time>
      </trkpt>
      <trkpt lat="48.8525" lon="2.33522">
        <ele>89.69928</ele>
        <time>2012-08-14T08:28:42Z</time>
      </trkpt>
      <trkpt lat="48.85268" lon="2.33517">
        <ele>96.48097</ele>
        <time>2012-08-14T08:28:56Z</time>
      </trkpt>
      <trkpt lat="48.85284" lon="2.33502">
        <ele>93.48338</ele>
        <time>2012-08-14T08:29:08Z</time>
      </trkpt>
      <trkpt lat="48.85297" lon="2.33523">
        <ele>84.35752</ele>
        <time>2012-08-14T08:29:56Z</time>
      </trkpt>
      <trkpt lat="48.85306" lon="2.33547">
        <ele>72.30797</ele>
        <time>2012-08-14T08:30:10Z</time>
      </trkpt>
      <trkpt lat="48.85322" lon="2.3356">
        <ele>68.70735</ele>
        <time>2012-08-14T08:31:05Z</time>
      </trkpt>
      <trkpt lat="48.8534" lon="2.33553">
        <ele>73.097496</ele>
        <time>2012-08-14T08:31:23Z</time>
      </trkpt>
      <trkpt lat="48.85358" lon="2.33558">
        <ele>73.05255</ele>
        <time>2012-08-14T08:31:37Z</time>
      </trkpt>
      <trkpt lat="48.85372" lon="2.33577">
        <ele>77.40051</ele>
        <time>2012-08-14T08:31:52Z</time>
      </trkpt>
      <trkpt lat="48.8539" lon="2.3358">
        <ele>80.56599</ele>
        <time>2012-08-14T08:32:08Z</time>
      </trkpt>
      <trkpt lat="48.85407" lon="2.33595">
        <ele>85.1626</ele>
        <time>2012-08-14T08:32:42Z</time>
      </trkpt>
      <trkpt lat="48.85424" lon="2.33608">
        <ele>85.562355</ele>
        <time>2012-08-14T08:32:54Z</time>
      </trkpt>
      <trkpt lat="48.85437" lon="2.33588">
        <ele>82.964874</ele>
        <time>2012-08-14T08:33:21Z</time>
      </trkpt>
      <trkpt lat="48.85418" lon="2.33582">
        <ele>77.894806</ele>
        <time>2012-08-14T08:33:30Z</time>
      </trkpt>
      <trkpt lat="48.85412" lon="2.33554">
        <ele>71.34483</ele>
        <time>2012-08-14T08:35:34Z</time>
      </trkpt>
      <trkpt lat="48.85402" lon="2.33529">
        <ele>74.45617</ele>
        <time>2012-08-14T08:35:58Z</time>
      </trkpt>
      <trkpt lat="48.85407" lon="2.33501">
        <ele>76.049736</ele>
        <time>2012-08-14T08:36:21Z</time>
      </trkpt>
      <trkpt lat="48.85412" lon="2.33475">
        <ele>77.024506</ele>
        <time>2012-08-14T08:36:28Z</time>
      </trkpt>
      <trkpt lat="48.85411" lon="2.33447">
        <ele>79.1615</ele>
        <time>2012-08-14T08:36:46Z</time>
      </trkpt>
      <trkpt lat="48.85421" lon="2.33422">
        <ele>79.78679</ele>
        <time>2012-08-14T08:36:57Z</time>
      </trkpt>
      <trkpt lat="48.85427" lon="2.33394">
        <ele>85.08611</ele>
        <time>2012-08-14T08:37:16Z</time>
      </trkpt>
      <trkpt lat="48.8544" lon="2.33375">
        <ele>82.6411</ele>
        <time>2012-08-14T08:37:30Z</time>
      </trkpt>
      <trkpt lat="48.85422" lon="2.33365">
        <ele>89.189354</ele>
        <time>2012-08-14T08:37:43Z</time>
      </trkpt>
      <trkpt lat="48.85406" lon="2.33353">
        <ele>79.330315</ele>
        <time>2012-08-14T08:40:36Z</time>
      </trkpt>
      <trkpt lat="48.85397" lon="2.33329">
        <ele>79.57964</ele>
        <time>2012-08-14T08:41:27Z</time>
      </trkpt>
      <trkpt lat="48.85399" lon="2.33301">
        <ele>78.73286</ele>
        <time>2012-08-14T08:42:16Z</time>
      </trkpt>
      <trkpt lat="48.85415" lon="2.33286">
        <ele>86.43153</ele>
        <time>2012-08-14T08:43:22Z</time>
      </trkpt>
      <trkpt lat="48.85434" lon="2.33289">
        <ele>88.83821</ele>
        <time>2012-08-14T08:43:31Z</time>
      </trkpt>
      <trkpt lat="48.85453" lon="2.33291">
        <ele>90.90557</ele>
        <time>2012-08-14T08:43:43Z</time>
      </trkpt>
      <trkpt lat="48.85471" lon="2.33295">
        <ele>94.887245</ele>
        <time>2012-08-14T08:44:23Z</time>
      </trkpt>
      <trkpt lat="48.85488" lon="2.33307">
        <ele>95.58058</ele>
        <time>2012-08-14T08:44:31Z</time>
      </trkpt>
      <trkpt lat="48.85506" lon="2.33312">
        <ele>96.73438</ele>
        <time>2012-08-14T08:44:43Z</time>
      </trkpt>
      <trkpt lat="48.85522" lon="2.33325">
        <ele>96.13622</ele>
        <time>2012-08-14T08:44:57Z</time>
      </trkpt>
      <trkpt lat="48.85538" lon="2.33342">
        <ele>95.08522</ele>
        <time>2012-08-14T08:45:14Z</time>
      </trkpt>
      <trkpt lat="48.85556" lon="2.33336">
        <ele>94.2327</ele>
        <time>2012-08-14T08:45:24Z</time>
      </trkpt>
      <trkpt lat="48.85567" lon="2.33359">
        <ele>87.21172</ele>
        <time>2012-08-14T08:45:54Z</time>
      </trkpt>
      <trkpt lat="48.85552" lon="2.3338">
        <ele>83.39167</ele>
        <time>2012-08-14T08:46:22Z</time>
      </trkpt>
      <trkpt lat="48.85544" lon="2.33405">
        <ele>87.54255</ele>
        <time>2012-08-14T08:47:02Z</time>
      </trkpt>
      <trkpt lat="48.85537" lon="2.33432">
        <ele>90.809555</ele>
        <time>2012-08-14T08:47:13Z</time>
      </trkpt>
      <trkpt lat="48.8553" lon="2.33458">
        <ele>95.52927</ele>
        <time>2012-08-14T08:47:27Z</time>
      </trkpt>
      <trkpt lat="48.85525" lon="2.33484">
        <ele>95.37627</ele>
        <time>2012-08-14T08:47:38Z</time>
      </trkpt>
      <trkpt lat="48.8553" lon="2.33511">
        <ele>95.08419</ele>
        <time>2012-08-14T08:48:07Z</time>
      </trkpt>
      <trkpt lat="48.85516" lon="2.3353">
        <ele>97.48252</ele>
        <time>2012-08-14T08:48:28Z</time>
      </trkpt>
      <trkpt lat="48.85503" lon="2.33551">
        <ele>96.8597</ele>
        <time>2012-08-14T08:49:01Z</time>
      </trkpt>
      <trkpt lat="48.85496" lon="2.33576">
        <ele>93.144775</ele>
        <time>2012-08-14T08:49:12Z</time>
      </trkpt>
      <trkpt lat="48.85488" lon="2.33603">
        <ele>101.01537</ele>
        <time>2012-08-14T08:49:35Z</time>
      </trkpt>
      <trkpt lat="48.85479" lon="2.33627">
        <ele>100.36517</ele>
        <time>2012-08-14T08:49:40Z</time>
      </trkpt>
      <trkpt lat="48.85465" lon="2.33645">
        <ele>100.91968</ele>
        <time>2012-08-14T08:49:46Z</time>
      </trkpt>
      <trkpt lat="48.85451" lon="2.33663">
        <ele>101.95681</ele>
        <time>2012-08-14T08:49:56Z</time>
      </trkpt>
      <trkpt lat="48.85433" lon="2.33666">
        <ele>95.30706</ele>
        <time>2012-08-14T08:50:08Z</time>
      </trkpt>
      <trkpt lat="48.85416" lon="2.33685">
        <ele>87.00473</ele>
        <time>2012-08-14T08:50:45Z</time>
      </trkpt>
      <trkpt lat="48.85398" lon="2.33698">
        <ele>88.70475</ele>
        <time>2012-08-14T08:50:51Z</time>
      </trkpt>
      <trkpt lat="48.85389" lon="2.33723">
        <ele>95.45312</ele>
        <time>2012-08-14T08:51:33Z</time>
      </trkpt>
      <trkpt lat="48.85385" lon="2.33751">
        <ele>93.84102</ele>
        <time>2012-08-14T08:51:58Z</time>
      </trkpt>
      <trkpt lat="48.85376" lon="2.33777">
        <ele>95.10973</ele>
        <time>2012-08-14T08:52:09Z</time>
      </trkpt>
      <trkpt lat="48.85363" lon="2.33796">
        <ele>99.2088</ele>
        <time>2012-08-14T08:52:21Z</time>
      </trkpt>
      <trkpt lat="48.8536" lon="2.33823">
        <ele>105.74319</ele>
        <time>2012-08-14T08:53:02Z</time>
      </trkpt>
      <trkpt lat="48.85358" lon="2.33851">
        <ele>85.571625</ele>
        <time>2012-08-14T08:53:48Z</time>
      </trkpt>
      <trkpt lat="48.85322" lon="2.33877">
        <ele>84.966255</ele>
        <time>2012-08-14T08:56:23Z</time>
      </trkpt>
      <trkpt lat="48.85302" lon="2.33889">
        <ele>84.76233</ele>
        <time>2012-08-14T08:56:26Z</time>
      </trkpt>
      <trkpt lat="48.85284" lon="2.33894">
        <ele>85.1325</ele>
        <time>2012-08-14T08:56:35Z</time>
      </trkpt>
      <trkpt lat="48.85266" lon="2.33907">
        <ele>99.507164</ele>
        <time>2012-08-14T08:57:05Z</time>
      </trkpt>
      <trkpt lat="48.85247" lon="2.33907">
        <ele>99.37982</ele>
        <time>2012-08-14T08:57:10Z</time>
      </trkpt>
      <trkpt lat="48.85233" lon="2.33891">
        <ele>92.02033</ele>
        <time>2012-08-14T08:57:45Z</time>
      </trkpt>
      <trkpt lat="48.85236" lon="2.33919">
        <ele>76.920135</ele>
        <time>2012-08-14T08:58:42Z</time>
      </trkpt>
      <trkpt lat="48.85236" lon="2.33947">
        <ele>79.48687</ele>
        <time>2012-08-14T08:59:00Z</time>
      </trkpt>
      <trkpt lat="48.85225" lon="2.33969">
        <ele>85.058914</ele>
        <time>2012-08-14T08:59:44Z</time>
      </trkpt>
      <trkpt lat="48.85219" lon="2.34001">
        <ele>78.45531</ele>
        <time>2012-08-14T08:59:50Z</time>
      </trkpt>
      <trkpt lat="48.85214" lon="2.34028">
        <ele>85.0159</ele>
        <time>2012-08-14T09:00:02Z</time>
      </trkpt>
      <trkpt lat="48.85211" lon="2.34055">
        <ele>87.695274</ele>
        <time>2012-08-14T09:00:16Z</time>
      </trkpt>
      <trkpt lat="48.8523" lon="2.34066">
        <ele>79.41658</ele>
        <time>2012-08-14T09:00:44Z</time>
      </trkpt>
      <trkpt lat="48.85245" lon="2.34085">
        <ele>80.76542</ele>
        <time>2012-08-14T09:00:57Z</time>
      </trkpt>
      <trkpt lat="48.85252" lon="2.34112">
        <ele>86.049355</ele>
        <time>2012-08-14T09:01:11Z</time>
      </trkpt>
      <trkpt lat="48.85251" lon="2.34142">
        <ele>88.81102</ele>
        <time>2012-08-14T09:01:19Z</time>
      </trkpt>
      <trkpt lat="48.85251" lon="2.34169">
        <ele>92.290764</ele>
        <time>2012-08-14T09:01:32Z</time>
      </trkpt>
      <trkpt lat="48.85262" lon="2.34191">
        <ele>93.40041</ele>
        <time>2012-08-14T09:01:50Z</time>
      </trkpt>
      <trkpt lat="48.85277" lon="2.34208">
        <ele>88.040565</ele>
        <time>2012-08-14T09:02:06Z</time>
      </trkpt>
      <trkpt lat="48.85291" lon="2.34226">
        <ele>87.27926</ele>
        <time>2012-08-14T09:02:19Z</time>
      </trkpt>
      <trkpt lat="48.85307" lon="2.34239">
        <ele>84.98672</ele>
        <time>2012-08-14T09:02:31Z</time>
      </trkpt>
      <trkpt lat="48.85314" lon="2.34265">
        <ele>84.14171</ele>
        <time>2012-08-14T09:02:48Z</time>
      </trkpt>
      <trkpt lat="48.85309" lon="2.34292">
        <ele>80.4829</ele>
        <time>2012-08-14T09:02:58Z</time>
      </trkpt>
      <trkpt lat="48.85307" lon="2.3432">
        <ele>80.26582</ele>
        <time>2012-08-14T09:03:11Z</time>
      </trkpt>
      <trkpt lat="48.85315" lon="2.34345">
        <ele>79.34666</ele>
        <time>2012-08-14T09:03:25Z</time>
      </trkpt>
      <trkpt lat="48.85326" lon="2.34368">
        <ele>81.19935</ele>
        <time>2012-08-14T09:03:38Z</time>
      </trkpt>
      <trkpt lat="48.85334" lon="2.34394">
        <ele>90.295975</ele>
        <time>2012-08-14T09:03:55Z</time>
      </trkpt>
      <trkpt lat="48.85341" lon="2.34421">
        <ele>83.35719</ele>
        <time>2012-08-14T09:05:48Z</time>
      </trkpt>
      <trkpt lat="48.85333" lon="2.34446">
        <ele>81.22688</ele>
        <time>2012-08-14T09:06:06Z</time>
      </trkpt>
      <trkpt lat="48.85321" lon="2.34468">
        <ele>81.55156</ele>
        <time>2012-08-14T09:06:26Z</time>
      </trkpt>
      <trkpt lat="48.85322" lon="2.34496">
        <ele>83.28055</ele>
        <time>2012-08-14T09:06:50Z</time>
      </trkpt>
      <trkpt lat="48.85326" lon="2.34525">
        <ele>81.000046</ele>
        <time>2012-08-14T09:07:33Z</time>
      </trkpt>
      <trkpt lat="48.85316" lon="2.34547">
        <ele>82.61095</ele>
        <time>2012-08-14T09:07:40Z</time>
      </trkpt>
      <trkpt lat="48.85299" lon="2.34561">
        <ele>83.69718</ele>
        <time>2012-08-14T09:07:49Z</time>
      </trkpt>
      <trkpt lat="48.85304" lon="2.34587">
        <ele>83.59928</ele>
        <time>2012-08-14T09:08:05Z</time>
      </trkpt>
      <trkpt lat="48.85289" lon="2.34604">
        <ele>77.0864</ele>
        <time>2012-08-14T09:08:17Z</time>
      </trkpt>
      <trkpt lat="48.85296" lon="2.3463">
        <ele>77.17284</ele>
        <time>2012-08-14T09:08:32Z</time>
      </trkpt>
      <trkpt lat="48.85273" lon="2.34636">
        <ele>78.22441</ele>
        <time>2012-08-14T09:08:37Z</time>
      </trkpt>
      <trkpt lat="48.85283" lon="2.3466">
        <ele>76.78928</ele>
        <time>2012-08-14T09:09:00Z</time>
      </trkpt>
      <trkpt lat="48.85295" lon="2.34681">
        <ele>70.57047</ele>
        <time>2012-08-14T09:09:21Z</time>
      </trkpt>
      <trkpt lat="48.85309" lon="2.34697">
        <ele>72.64304</ele>
        <time>2012-08-14T09:09:39Z</time>
      </trkpt>
      <trkpt lat="48.85327" lon="2.34706">
        <ele>75.41566</ele>
        <time>2012-08-14T09:09:58Z</time>
      </trkpt>
      <trkpt lat="48.8534" lon="2.34724">
        <ele>70.45043</ele>
        <time>2012-08-14T09:10:38Z</time>
      </trkpt>
      <trkpt lat="48.85342" lon="2.34753">
        <ele>73.1637</ele>
        <time>2012-08-14T09:11:01Z</time>
      </trkpt>
      <trkpt lat="48.85335" lon="2.34779">
        <ele>76.97477</ele>
        <time>2012-08-14T09:11:18Z</time>
      </trkpt>
      <trkpt lat="48.85328" lon="2.34805">
        <ele>80.273735</ele>
        <time>2012-08-14T09:11:41Z</time>
      </trkpt>
      <trkpt lat="48.8532" lon="2.3483">
        <ele>85.271126</ele>
        <time>2012-08-14T09:12:01Z</time>
      </trkpt>
      <trkpt lat="48.85308" lon="2.34851">
        <ele>81.29572</ele>
        <time>2012-08-14T09:12:23Z</time>
      </trkpt>
      <trkpt lat="48.85293" lon="2.34868">
        <ele>82.28134</ele>
        <time>2012-08-14T09:12:37Z</time>
      </trkpt>
      <trkpt lat="48.85276" lon="2.3488">
        <ele>79.115685</ele>
        <time>2012-08-14T09:13:16Z</time>
      </trkpt>
      <trkpt lat="48.85268" lon="2.34906">
        <ele>74.04324</ele>
        <time>2012-08-14T09:13:31Z</time>
      </trkpt>
      <trkpt lat="48.85255" lon="2.34928">
        <ele>74.71695</ele>
        <time>2012-08-14T09:13:46Z</time>
      </trkpt>
      <trkpt lat="48.85242" lon="2.34947">
        <ele>75.91629</ele>
        <time>2012-08-14T09:14:00Z</time>
      </trkpt>
      <trkpt lat="48.85234" lon="2.34972">
        <ele>75.37621</ele>
        <time>2012-08-14T09:14:21Z</time>
      </trkpt>
      <trkpt lat="48.85223" lon="2.34995">
        <ele>79.32033</ele>
        <time>2012-08-14T09:14:39Z</time>
      </trkpt>
      <trkpt lat="48.85217" lon="2.35021">
        <ele>78.810776</ele>
        <time>2012-08-14T09:15:01Z</time>
      </trkpt>
      <trkpt lat="48.85214" lon="2.35048">
        <ele>80.94086</ele>
        <time>2012-08-14T09:15:14Z</time>
      </trkpt>
      <trkpt lat="48.85226" lon="2.35071">
        <ele>84.1717</ele>
        <time>2012-08-14T09:15:30Z</time>
      </trkpt>
      <trkpt lat="48.85236" lon="2.35093">
        <ele>85.05277</ele>
        <time>2012-08-14T09:15:48Z</time>
      </trkpt>
      <trkpt lat="48.85237" lon="2.35121">
        <ele>81.80077</ele>
        <time>2012-08-14T09:18:40Z</time>
      </trkpt>
      <trkpt lat="48.85253" lon="2.35107">
        <ele>80.92263</ele>
        <time>2012-08-14T09:21:17Z</time>
      </trkpt>
      <trkpt lat="48.85271" lon="2.35112">
        <ele>80.93562</ele>
        <time>2012-08-14T09:21:26Z</time>
      </trkpt>
      <trkpt lat="48.85253" lon="2.35113">
        <ele>79.34508</ele>
        <time>2012-08-14T09:22:00Z</time>
      </trkpt>
      <trkpt lat="48.85236" lon="2.35123">
        <ele>74.71321</ele>
        <time>2012-08-14T09:23:05Z</time>
      </trkpt>
      <trkpt lat="48.85244" lon="2.3515">
        <ele>74.35984</ele>
        <time>2012-08-14T09:23:30Z</time>
      </trkpt>
      <trkpt lat="48.85253" lon="2.35174">
        <ele>79.42099</ele>
        <time>2012-08-14T09:23:43Z</time>
      </trkpt>
      <trkpt lat="48.85262" lon="2.35198">
        <ele>80.69281</ele>
        <time>2012-08-14T09:24:06Z</time>
      </trkpt>
      <trkpt lat="48.85264" lon="2.35227">
        <ele>79.762726</ele>
        <time>2012-08-14T09:24:35Z</time>
      </trkpt>
      <trkpt lat="48.85268" lon="2.35256">
        <ele>81.1815</ele>
        <time>2012-08-14T09:24:47Z</time>
      </trkpt>
      <trkpt lat="48.85268" lon="2.35284">
        <ele>82.800934</ele>
        <time>2012-08-14T09:25:06Z</time>
      </trkpt>
      <trkpt lat="48.85278" lon="2.35306">
        <ele>81.628136</ele>
        <time>2012-08-14T09:25:27Z</time>
      </trkpt>
      <trkpt lat="48.8528" lon="2.35334">
        <ele>79.34187</ele>
        <time>2012-08-14T09:26:02Z</time>
      </trkpt>
      <trkpt lat="48.85279" lon="2.35364">
        <ele>81.93073</ele>
        <time>2012-08-14T09:26:21Z</time>
      </trkpt>
      <trkpt lat="48.8527" lon="2.35387">
        <ele>79.98926</ele>
        <time>2012-08-14T09:26:40Z</time>
      </trkpt>
      <trkpt lat="48.85264" lon="2.35414">
        <ele>79.593735</ele>
        <time>2012-08-14T09:27:06Z</time>
      </trkpt>
      <trkpt lat="48.85258" lon="2.35439">
        <ele>81.05912</ele>
        <time>2012-08-14T09:27:28Z</time>
      </trkpt>
      <trkpt lat="48.85259" lon="2.35467">
        <ele>80.64147</ele>
        <time>2012-08-14T09:27:48Z</time>
      </trkpt>
      <trkpt lat="48.85246" lon="2.35488">
        <ele>80.35702</ele>
        <time>2012-08-14T09:27:59Z</time>
      </trkpt>
      <trkpt lat="48.85234" lon="2.35511">
        <ele>81.37592</ele>
        <time>2012-08-14T09:28:09Z</time>
      </trkpt>
      <trkpt lat="48.85222" lon="2.35533">
        <ele>83.25331</ele>
        <time>2012-08-14T09:28:28Z</time>
      </trkpt>
      <trkpt lat="48.85229" lon="2.35561">
        <ele>81.021454</ele>
        <time>2012-08-14T09:28:38Z</time>
      </trkpt>
      <trkpt lat="48.85229" lon="2.35591">
        <ele>78.62223</ele>
        <time>2012-08-14T09:29:02Z</time>
      </trkpt>
      <trkpt lat="48.85215" lon="2.3561">
        <ele>79.12229</ele>
        <time>2012-08-14T09:29:36Z</time>
      </trkpt>
      <trkpt lat="48.85198" lon="2.35624">
        <ele>78.48647</ele>
        <time>2012-08-14T09:29:45Z</time>
      </trkpt>
      <trkpt lat="48.852" lon="2.35653">
        <ele>84.705635</ele>
        <time>2012-08-14T09:29:58Z</time>
      </trkpt>
      <trkpt lat="48.85184" lon="2.35669">
        <ele>88.3038</ele>
        <time>2012-08-14T09:30:20Z</time>
      </trkpt>
      <trkpt lat="48.85177" lon="2.35695">
        <ele>91.36962</ele>
        <time>2012-08-14T09:30:37Z</time>
      </trkpt>
      <trkpt lat="48.85179" lon="2.35723">
        <ele>91.89044</ele>
        <time>2012-08-14T09:31:00Z</time>
      </trkpt>
      <trkpt lat="48.85168" lon="2.35745">
        <ele>87.48331</ele>
        <time>2012-08-14T09:31:17Z</time>
      </trkpt>
      <trkpt lat="48.8515" lon="2.35737">
        <ele>85.754036</ele>
        <time>2012-08-14T09:31:38Z</time>
      </trkpt>
      <trkpt lat="48.85134" lon="2.35724">
        <ele>90.94292</ele>
        <time>2012-08-14T09:32:04Z</time>
      </trkpt>
      <trkpt lat="48.85162" lon="2.3575">
        <ele>92.26553</ele>
        <time>2012-08-14T09:33:24Z</time>
      </trkpt>
      <trkpt lat="48.85156" lon="2.35825">
        <ele>101.4</ele>
        <time>2012-08-14T09:34:44Z</time>
      </trkpt>
      <trkpt lat="48.85173" lon="2.35832">
        <ele>83.49439</ele>
        <time>2012-08-14T09:34:55Z</time>
      </trkpt>
      <trkpt lat="48.85189" lon="2.35845">
        <ele>74.889145</ele>
        <time>2012-08-14T09:35:07Z</time>
      </trkpt>
      <trkpt lat="48.85184" lon="2.35872">
        <ele>73.39837</ele>
        <time>2012-08-14T09:35:36Z</time>
      </trkpt>
      <trkpt lat="48.85174" lon="2.35895">
        <ele>71.815926</ele>
        <time>2012-08-14T09:36:11Z</time>
      </trkpt>
      <trkpt lat="48.85168" lon="2.35921">
        <ele>78.28932</ele>
        <time>2012-08-14T09:36:38Z</time>
      </trkpt>
      <trkpt lat="48.8516" lon="2.35945">
        <ele>84.0759</ele>
        <time>2012-08-14T09:36:55Z</time>
      </trkpt>
      <trkpt lat="48.85149" lon="2.35968">
        <ele>81.32333</ele>
        <time>2012-08-14T09:37:08Z</time>
      </trkpt>
      <trkpt lat="48.85134" lon="2.35985">
        <ele>82.90855</ele>
        <time>2012-08-14T09:37:32Z</time>
      </trkpt>
      <trkpt lat="48.85117" lon="2.35993">
        <ele>77.84108</ele>
        <time>2012-08-14T09:37:45Z</time>
      </trkpt>
      <trkpt lat="48.85098" lon="2.35991">
        <ele>74.51236</ele>
        <time>2012-08-14T09:38:04Z</time>
      </trkpt>
      <trkpt lat="48.85079" lon="2.35993">
        <ele>75.97779</ele>
        <time>2012-08-14T09:38:27Z</time>
      </trkpt>
      <trkpt lat="48.85062" lon="2.35999">
        <ele>77.16243</ele>
        <time>2012-08-14T09:38:50Z</time>
      </trkpt>
      <trkpt lat="48.85045" lon="2.36014">
        <ele>79.71074</ele>
        <time>2012-08-14T09:39:08Z</time>
      </trkpt>
      <trkpt lat="48.85033" lon="2.35991">
        <ele>81.55883</ele>
        <time>2012-08-14T09:39:45Z</time>
      </trkpt>
      <trkpt lat="48.85014" lon="2.35983">
        <ele>83.04829</ele>
        <time>2012-08-14T09:40:01Z</time>
      </trkpt>
      <trkpt lat="48.84997" lon="2.35994">
        <ele>77.61864</ele>
        <time>2012-08-14T09:40:18Z</time>
      </trkpt>
      <trkpt lat="48.84981" lon="2.36009">
        <ele>77.03162</ele>
        <time>2012-08-14T09:40:38Z</time>
      </trkpt>
      <trkpt lat="48.84962" lon="2.36012">
        <ele>76.4068</ele>
        <time>2012-08-14T09:41:04Z</time>
      </trkpt>
      <trkpt lat="48.84978" lon="2.35997">
        <ele>77.974</ele>
        <time>2012-08-14T09:42:40Z</time>
      </trkpt>
      <trkpt lat="48.84991" lon="2.35978">
        <ele>84.47814</ele>
        <time>2012-08-14T09:42:54Z</time>
      </trkpt>
      <trkpt lat="48.85003" lon="2.35956">
        <ele>83.45097</ele>
        <time>2012-08-14T09:43:12Z</time>
      </trkpt>
      <trkpt lat="48.85017" lon="2.3594">
        <ele>83.10498</ele>
        <time>2012-08-14T09:43:29Z</time>
      </trkpt>
      <trkpt lat="48.85013" lon="2.3591">
        <ele>82.920166</ele>
        <time>2012-08-14T09:43:54Z</time>
      </trkpt>
      <trkpt lat="48.85002" lon="2.35888">
        <ele>81.02834</ele>
        <time>2012-08-14T09:44:12Z</time>
      </trkpt>
      <trkpt lat="48.84996" lon="2.35861">
        <ele>83.673805</ele>
        <time>2012-08-14T09:44:26Z</time>
      </trkpt>
      <trkpt lat="48.84988" lon="2.35833">
        <ele>81.50413</ele>
        <time>2012-08-14T09:44:39Z</time>
      </trkpt>
      <trkpt lat="48.84984" lon="2.35804">
        <ele>82.84701</ele>
        <time>2012-08-14T09:44:56Z</time>
      </trkpt>
      <trkpt lat="48.84973" lon="2.35782">
        <ele>85.02395</ele>
        <time>2012-08-14T09:45:11Z</time>
      </trkpt>
      <trkpt lat="48.84963" lon="2.35756">
        <ele>82.61373</ele>
        <time>2012-08-14T09:45:26Z</time>
      </trkpt>
      <trkpt lat="48.84958" lon="2.3573">
        <ele>92.72211</ele>
        <time>2012-08-14T09:45:44Z</time>
      </trkpt>
      <trkpt lat="48.84946" lon="2.35709">
        <ele>82.50317</ele>
        <time>2012-08-14T09:46:02Z</time>
      </trkpt>
      <trkpt lat="48.84931" lon="2.35725">
        <ele>82.21275</ele>
        <time>2012-08-14T09:46:15Z</time>
      </trkpt>
      <trkpt lat="48.84919" lon="2.35746">
        <ele>85.27343</ele>
        <time>2012-08-14T09:46:33Z</time>
      </trkpt>
      <trkpt lat="48.84915" lon="2.35773">
        <ele>85.76076</ele>
        <time>2012-08-14T09:46:49Z</time>
      </trkpt>
      <trkpt lat="48.84908" lon="2.35799">
        <ele>86.29326</ele>
        <time>2012-08-14T09:47:00Z</time>
      </trkpt>
      <trkpt lat="48.84898" lon="2.35824">
        <ele>80.133766</ele>
        <time>2012-08-14T09:47:11Z</time>
      </trkpt>
      <trkpt lat="48.84898" lon="2.35852">
        <ele>75.7956</ele>
        <time>2012-08-14T09:47:37Z</time>
      </trkpt>
      <trkpt lat="48.84897" lon="2.35881">
        <ele>65.31395</ele>
        <time>2012-08-14T09:47:52Z</time>
      </trkpt>
      <trkpt lat="48.84882" lon="2.35899">
        <ele>62.76926</ele>
        <time>2012-08-14T09:48:03Z</time>
      </trkpt>
      <trkpt lat="48.84868" lon="2.35918">
        <ele>66.96544</ele>
        <time>2012-08-14T09:48:14Z</time>
      </trkpt>
      <trkpt lat="48.84852" lon="2.3593">
        <ele>69.91804</ele>
        <time>2012-08-14T09:48:29Z</time>
      </trkpt>
      <trkpt lat="48.84844" lon="2.35955">
        <ele>71.96601</ele>
        <time>2012-08-14T09:48:50Z</time>
      </trkpt>
      <trkpt lat="48.84825" lon="2.35962">
        <ele>73.28933</ele>
        <time>2012-08-14T09:49:44Z</time>
      </trkpt>
      <trkpt lat="48.84817" lon="2.35987">
        <ele>70.89496</ele>
        <time>2012-08-14T09:50:07Z</time>
      </trkpt>
      <trkpt lat="48.84809" lon="2.36011">
        <ele>69.00456</ele>
        <time>2012-08-14T09:51:26Z</time>
      </trkpt>
      <trkpt lat="48.84799" lon="2.36037">
        <ele>66.061806</ele>
        <time>2012-08-14T09:51:47Z</time>
      </trkpt>
      <trkpt lat="48.84789" lon="2.36061">
        <ele>63.412205</ele>
        <time>2012-08-14T09:52:02Z</time>
      </trkpt>
      <trkpt lat="48.84777" lon="2.36085">
        <ele>63.54493</ele>
        <time>2012-08-14T09:52:16Z</time>
      </trkpt>
      <trkpt lat="48.84761" lon="2.36097">
        <ele>65.21694</ele>
        <time>2012-08-14T09:52:30Z</time>
      </trkpt>
      <trkpt lat="48.84743" lon="2.36109">
        <ele>66.34253</ele>
        <time>2012-08-14T09:52:43Z</time>
      </trkpt>
      <trkpt lat="48.8473" lon="2.36128">
        <ele>69.46373</ele>
        <time>2012-08-14T09:52:57Z</time>
      </trkpt>
      <trkpt lat="48.84719" lon="2.36151">
        <ele>75.69571</ele>
        <time>2012-08-14T09:53:15Z</time>
      </trkpt>
      <trkpt lat="48.84709" lon="2.36175">
        <ele>70.96469</ele>
        <time>2012-08-14T09:53:39Z</time>
      </trkpt>
      <trkpt lat="48.84694" lon="2.36194">
        <ele>70.61101</ele>
        <time>2012-08-14T09:53:52Z</time>
      </trkpt>
      <trkpt lat="48.84681" lon="2.36215">
        <ele>72.68428</ele>
        <time>2012-08-14T09:54:04Z</time>
      </trkpt>
      <trkpt lat="48.84669" lon="2.36236">
        <ele>71.32066</ele>
        <time>2012-08-14T09:54:20Z</time>
      </trkpt>
      <trkpt lat="48.84655" lon="2.36255">
        <ele>67.61021</ele>
        <time>2012-08-14T09:54:40Z</time>
      </trkpt>
      <trkpt lat="48.8464" lon="2.36273">
        <ele>67.6729</ele>
        <time>2012-08-14T09:54:55Z</time>
      </trkpt>
      <trkpt lat="48.84624" lon="2.36286">
        <ele>69.8255</ele>
        <time>2012-08-14T09:55:25Z</time>
      </trkpt>
      <trkpt lat="48.8461" lon="2.36306">
        <ele>66.19396</ele>
        <time>2012-08-14T09:55:42Z</time>
      </trkpt>
      <trkpt lat="48.84594" lon="2.36319">
        <ele>61.461662</ele>
        <time>2012-08-14T09:56:00Z</time>
      </trkpt>
      <trkpt lat="48.84577" lon="2.36332">
        <ele>61.131027</ele>
        <time>2012-08-14T09:56:15Z</time>
      </trkpt>
      <trkpt lat="48.84561" lon="2.36347">
        <ele>60.774704</ele>
        <time>2012-08-14T09:56:32Z</time>
      </trkpt>
      <trkpt lat="48.84544" lon="2.36363">
        <ele>65.436905</ele>
        <time>2012-08-14T09:56:44Z</time>
      </trkpt>
      <trkpt lat="48.8453" lon="2.36381">
        <ele>68.37933</ele>
        <time>2012-08-14T09:56:58Z</time>
      </trkpt>
      <trkpt lat="48.84516" lon="2.36399">
        <ele>68.29954</ele>
        <time>2012-08-14T09:57:17Z</time>
      </trkpt>
      <trkpt lat="48.84502" lon="2.36418">
        <ele>72.451195</ele>
        <time>2012-08-14T09:57:59Z</time>
      </trkpt>
      <trkpt lat="48.84485" lon="2.36429">
        <ele>76.8979</ele>
        <time>2012-08-14T09:58:35Z</time>
      </trkpt>
      <trkpt lat="48.8447" lon="2.36445">
        <ele>80.28466</ele>
        <time>2012-08-14T09:58:51Z</time>
      </trkpt>
      <trkpt lat="48.84455" lon="2.36461">
        <ele>81.18012</ele>
        <time>2012-08-14T09:59:13Z</time>
      </trkpt>
      <trkpt lat="48.8445" lon="2.36489">
        <ele>76.94445</ele>
        <time>2012-08-14T09:59:31Z</time>
      </trkpt>
      <trkpt lat="48.84457" lon="2.36515">
        <ele>76.745514</ele>
        <time>2012-08-14T09:59:45Z</time>
      </trkpt>
      <trkpt lat="48.84469" lon="2.36537">
        <ele>75.303</ele>
        <time>2012-08-14T10:00:00Z</time>
      </trkpt>
      <trkpt lat="48.8448" lon="2.3656">
        <ele>73.218155</ele>
        <time>2012-08-14T10:00:14Z</time>
      </trkpt>
      <trkpt lat="48.84492" lon="2.36581">
        <ele>73.13245</ele>
        <time>2012-08-14T10:00:35Z</time>
      </trkpt>
      <trkpt lat="48.84504" lon="2.36603">
        <ele>73.558235</ele>
        <time>2012-08-14T10:00:50Z</time>
      </trkpt>
      <trkpt lat="48.84518" lon="2.36622">
        <ele>70.095406</ele>
        <time>2012-08-14T10:01:13Z</time>
      </trkpt>
      <trkpt lat="48.84532" lon="2.36642">
        <ele>67.725464</ele>
        <time>2012-08-14T10:01:26Z</time>
      </trkpt>
      <trkpt lat="48.84534" lon="2.3667">
        <ele>70.38396</ele>
        <time>2012-08-14T10:01:41Z</time>
      </trkpt>
      <trkpt lat="48.84547" lon="2.3669">
        <ele>83.07466</ele>
        <time>2012-08-14T10:01:58Z</time>
      </trkpt>
      <trkpt lat="48.84563" lon="2.36675">
        <ele>89.93284</ele>
        <time>2012-08-14T10:02:14Z</time>
      </trkpt>
      <trkpt lat="48.84582" lon="2.36673">
        <ele>86.59172</ele>
        <time>2012-08-14T10:02:30Z</time>
      </trkpt>
      <trkpt lat="48.84601" lon="2.36658">
        <ele>86.21402</ele>
        <time>2012-08-14T10:02:45Z</time>
      </trkpt>
      <trkpt lat="48.84622" lon="2.36661">
        <ele>84.35603</ele>
        <time>2012-08-14T10:02:55Z</time>
      </trkpt>
      <trkpt lat="48.84639" lon="2.36671">
        <ele>91.65086</ele>
        <time>2012-08-14T10:04:36Z</time>
      </trkpt>
      <trkpt lat="48.84658" lon="2.36671">
        <ele>91.75142</ele>
        <time>2012-08-14T10:04:43Z</time>
      </trkpt>
      <trkpt lat="48.84675" lon="2.36684">
        <ele>103.71601</ele>
        <time>2012-08-14T10:05:31Z</time>
      </trkpt>
      <trkpt lat="48.84694" lon="2.3669">
        <ele>109.39034</ele>
        <time>2012-08-14T10:05:38Z</time>
      </trkpt>
      <trkpt lat="48.84712" lon="2.36701">
        <ele>111.10013</ele>
        <time>2012-08-14T10:05:47Z</time>
      </trkpt>
      <trkpt lat="48.84728" lon="2.36712">
        <ele>115.084885</ele>
        <time>2012-08-14T10:05:58Z</time>
      </trkpt>
      <trkpt lat="48.84746" lon="2.36717">
        <ele>106.70241</ele>
        <time>2012-08-14T10:06:22Z</time>
      </trkpt>
      <trkpt lat="48.84763" lon="2.36728">
        <ele>105.25191</ele>
        <time>2012-08-14T10:06:43Z</time>
      </trkpt>
      <trkpt lat="48.84777" lon="2.36746">
        <ele>104.34202</ele>
        <time>2012-08-14T10:07:02Z</time>
      </trkpt>
      <trkpt lat="48.84795" lon="2.36746">
        <ele>103.11375</ele>
        <time>2012-08-14T10:07:49Z</time>
      </trkpt>
      <trkpt lat="48.84813" lon="2.36749">
        <ele>96.56614</ele>
        <time>2012-08-14T10:08:05Z</time>
      </trkpt>
      <trkpt lat="48.84832" lon="2.36755">
        <ele>92.11229</ele>
        <time>2012-08-14T10:08:15Z</time>
      </trkpt>
      <trkpt lat="48.8485" lon="2.36751">
        <ele>88.44885</ele>
        <time>2012-08-14T10:08:29Z</time>
      </trkpt>
      <trkpt lat="48.84867" lon="2.36741">
        <ele>85.35079</ele>
        <time>2012-08-14T10:08:40Z</time>
      </trkpt>
      <trkpt lat="48.84885" lon="2.36741">
        <ele>86.04616</ele>
        <time>2012-08-14T10:08:52Z</time>
      </trkpt>
      <trkpt lat="48.84903" lon="2.36733">
        <ele>86.17028</ele>
        <time>2012-08-14T10:09:18Z</time>
      </trkpt>
      <trkpt lat="48.8492" lon="2.36745">
        <ele>86.80768</ele>
        <time>2012-08-14T10:09:29Z</time>
      </trkpt>
      <trkpt lat="48.84938" lon="2.36749">
        <ele>86.36501</ele>
        <time>2012-08-14T10:09:41Z</time>
      </trkpt>
      <trkpt lat="48.84956" lon="2.36757">
        <ele>86.13209</ele>
        <time>2012-08-14T10:09:56Z</time>
      </trkpt>
      <trkpt lat="48.84973" lon="2.36762">
        <ele>87.263535</ele>
        <time>2012-08-14T10:10:13Z</time>
      </trkpt>
      <trkpt lat="48.84992" lon="2.36767">
        <ele>84.31161</ele>
        <time>2012-08-14T10:10:35Z</time>
      </trkpt>
      <trkpt lat="48.85009" lon="2.36777">
        <ele>85.65495</ele>
        <time>2012-08-14T10:10:54Z</time>
      </trkpt>
      <trkpt lat="48.85027" lon="2.36786">
        <ele>89.13923</ele>
        <time>2012-08-14T10:11:19Z</time>
      </trkpt>
      <trkpt lat="48.85045" lon="2.36793">
        <ele>85.65008</ele>
        <time>2012-08-14T10:11:35Z</time>
      </trkpt>
      <trkpt lat="48.85062" lon="2.36799">
        <ele>92.295815</ele>
        <time>2012-08-14T10:11:51Z</time>
      </trkpt>
      <trkpt lat="48.85078" lon="2.36813">
        <ele>93.07414</ele>
        <time>2012-08-14T10:12:01Z</time>
      </trkpt>
      <trkpt lat="48.85089" lon="2.36835">
        <ele>102.85771</ele>
        <time>2012-08-14T10:13:08Z</time>
      </trkpt>
      <trkpt lat="48.85105" lon="2.36851">
        <ele>99.9541</ele>
        <time>2012-08-14T10:13:16Z</time>
      </trkpt>
      <trkpt lat="48.8512" lon="2.36867">
        <ele>94.6974</ele>
        <time>2012-08-14T10:13:30Z</time>
      </trkpt>
      <trkpt lat="48.85133" lon="2.36886">
        <ele>99.93793</ele>
        <time>2012-08-14T10:13:53Z</time>
      </trkpt>
      <trkpt lat="48.8515" lon="2.369">
        <ele>98.025536</ele>
        <time>2012-08-14T10:14:24Z</time>
      </trkpt>
      <trkpt lat="48.85167" lon="2.3691">
        <ele>97.41221</ele>
        <time>2012-08-14T10:14:29Z</time>
      </trkpt>
      <trkpt lat="48.85185" lon="2.36917">
        <ele>96.3754</ele>
        <time>2012-08-14T10:14:45Z</time>
      </trkpt>
      <trkpt lat="48.85204" lon="2.36915">
        <ele>94.55812</ele>
        <time>2012-08-14T10:15:30Z</time>
      </trkpt>
      <trkpt lat="48.85222" lon="2.36911">
        <ele>100.09791</ele>
        <time>2012-08-14T10:15:41Z</time>
      </trkpt>
      <trkpt lat="48.85241" lon="2.36918">
        <ele>96.49078</ele>
        <time>2012-08-14T10:15:48Z</time>
      </trkpt>
      <trkpt lat="48.85256" lon="2.36933">
        <ele>96.64731</ele>
        <time>2012-08-14T10:16:39Z</time>
      </trkpt>
      <trkpt lat="48.85232" lon="2.37182">
        <ele>56.29531</ele>
        <time>2012-08-14T11:38:12Z</time>
      </trkpt>
      <trkpt lat="48.85226" lon="2.37211">
        <ele>76.49226</ele>
        <time>2012-08-14T11:38:16Z</time>
      </trkpt>
      <trkpt lat="48.85225" lon="2.37238">
        <ele>93.594154</ele>
        <time>2012-08-14T11:38:22Z</time>
      </trkpt>
      <trkpt lat="48.85217" lon="2.37264">
        <ele>99.01005</ele>
        <time>2012-08-14T11:38:34Z</time>
      </trkpt>
      <trkpt lat="48.85203" lon="2.37285">
        <ele>98.38451</ele>
        <time>2012-08-14T11:38:45Z</time>
      </trkpt>
      <trkpt lat="48.85198" lon="2.37313">
        <ele>100.22485</ele>
        <time>2012-08-14T11:38:56Z</time>
      </trkpt>
      <trkpt lat="48.85194" lon="2.37341">
        <ele>100.61788</ele>
        <time>2012-08-14T11:39:08Z</time>
      </trkpt>
      <trkpt lat="48.8519" lon="2.37372">
        <ele>99.39448</ele>
        <time>2012-08-14T11:39:18Z</time>
      </trkpt>
      <trkpt lat="48.852" lon="2.37395">
        <ele>91.52123</ele>
        <time>2012-08-14T11:39:28Z</time>
      </trkpt>
      <trkpt lat="48.85218" lon="2.37409">
        <ele>82.837265</ele>
        <time>2012-08-14T11:39:37Z</time>
      </trkpt>
      <trkpt lat="48.85235" lon="2.37418">
        <ele>75.52879</ele>
        <time>2012-08-14T11:39:46Z</time>
      </trkpt>
      <trkpt lat="48.8525" lon="2.37433">
        <ele>69.9965</ele>
        <time>2012-08-14T11:39:58Z</time>
      </trkpt>
      <trkpt lat="48.85266" lon="2.37446">
        <ele>72.52166</ele>
        <time>2012-08-14T11:40:13Z</time>
      </trkpt>
      <trkpt lat="48.85284" lon="2.37455">
        <ele>70.89231</ele>
        <time>2012-08-14T11:40:25Z</time>
      </trkpt>
      <trkpt lat="48.85295" lon="2.37479">
        <ele>67.34829</ele>
        <time>2012-08-14T11:40:35Z</time>
      </trkpt>
      <trkpt lat="48.85295" lon="2.37451">
        <ele>68.56628</ele>
        <time>2012-08-14T11:41:42Z</time>
      </trkpt>
      <trkpt lat="48.85278" lon="2.37438">
        <ele>75.435616</ele>
        <time>2012-08-14T11:41:57Z</time>
      </trkpt>
      <trkpt lat="48.85259" lon="2.37434">
        <ele>81.59722</ele>
        <time>2012-08-14T11:42:10Z</time>
      </trkpt>
      <trkpt lat="48.8524" lon="2.3743">
        <ele>84.26263</ele>
        <time>2012-08-14T11:42:20Z</time>
      </trkpt>
      <trkpt lat="48.85224" lon="2.37418">
        <ele>82.77688</ele>
        <time>2012-08-14T11:42:29Z</time>
      </trkpt>
      <trkpt lat="48.85206" lon="2.37408">
        <ele>79.32172</ele>
        <time>2012-08-14T11:42:40Z</time>
      </trkpt>
      <trkpt lat="48.85189" lon="2.37396">
        <ele>77.78931</ele>
        <time>2012-08-14T11:42:53Z</time>
      </trkpt>
      <trkpt lat="48.85183" lon="2.3737">
        <ele>77.59216</ele>
        <time>2012-08-14T11:43:06Z</time>
      </trkpt>
      <trkpt lat="48.85194" lon="2.37345">
        <ele>78.41342</ele>
        <time>2012-08-14T11:43:13Z</time>
      </trkpt>
      <trkpt lat="48.85204" lon="2.37322">
        <ele>81.670654</ele>
        <time>2012-08-14T11:43:22Z</time>
      </trkpt>
      <trkpt lat="48.8521" lon="2.37295">
        <ele>86.81762</ele>
        <time>2012-08-14T11:43:34Z</time>
      </trkpt>
      <trkpt lat="48.85213" lon="2.37268">
        <ele>88.85336</ele>
        <time>2012-08-14T11:43:46Z</time>
      </trkpt>
      <trkpt lat="48.85226" lon="2.37244">
        <ele>93.55165</ele>
        <time>2012-08-14T11:43:53Z</time>
      </trkpt>
      <trkpt lat="48.85238" lon="2.37221">
        <ele>98.57255</ele>
        <time>2012-08-14T11:44:01Z</time>
      </trkpt>
      <trkpt lat="48.85251" lon="2.372">
        <ele>97.81913</ele>
        <time>2012-08-14T11:44:15Z</time>
      </trkpt>
      <trkpt lat="48.85257" lon="2.37174">
        <ele>100.68521</ele>
        <time>2012-08-14T11:44:25Z</time>
      </trkpt>
      <trkpt lat="48.85267" lon="2.3715">
        <ele>103.04744</ele>
        <time>2012-08-14T11:44:36Z</time>
      </trkpt>
      <trkpt lat="48.85276" lon="2.37127">
        <ele>104.85261</ele>
        <time>2012-08-14T11:44:52Z</time>
      </trkpt>
      <trkpt lat="48.85243" lon="2.37168">
        <ele>104.30566</ele>
        <time>2012-08-14T11:45:42Z</time>
      </trkpt>
      <trkpt lat="48.85264" lon="2.37142">
        <ele>103.65318</ele>
        <time>2012-08-14T11:45:44Z</time>
      </trkpt>
      <trkpt lat="48.85249" lon="2.37156">
        <ele>86.84697</ele>
        <time>2012-08-14T11:46:28Z</time>
      </trkpt>
      <trkpt lat="48.85241" lon="2.37182">
        <ele>82.65009</ele>
        <time>2012-08-14T11:46:58Z</time>
      </trkpt>
      <trkpt lat="48.85233" lon="2.37207">
        <ele>79.1583</ele>
        <time>2012-08-14T11:47:24Z</time>
      </trkpt>
      <trkpt lat="48.85242" lon="2.37231">
        <ele>81.29682</ele>
        <time>2012-08-14T11:47:52Z</time>
      </trkpt>
      <trkpt lat="48.85238" lon="2.37258">
        <ele>80.18416</ele>
        <time>2012-08-14T11:48:17Z</time>
      </trkpt>
      <trkpt lat="48.85229" lon="2.37285">
        <ele>78.6934</ele>
        <time>2012-08-14T11:48:32Z</time>
      </trkpt>
      <trkpt lat="48.85226" lon="2.37313">
        <ele>78.87015</ele>
        <time>2012-08-14T11:48:56Z</time>
      </trkpt>
      <trkpt lat="48.85228" lon="2.37341">
        <ele>79.76335</ele>
        <time>2012-08-14T11:49:14Z</time>
      </trkpt>
      <trkpt lat="48.85212" lon="2.37355">
        <ele>79.175</ele>
        <time>2012-08-14T11:51:04Z</time>
      </trkpt>
      <trkpt lat="48.85194" lon="2.37306">
        <ele>81.867966</ele>
        <time>2012-08-14T11:51:20Z</time>
      </trkpt>
      <trkpt lat="48.85155" lon="2.37277">
        <ele>82.30097</ele>
        <time>2012-08-14T11:51:21Z</time>
      </trkpt>
      <trkpt lat="48.85116" lon="2.37271">
        <ele>83.22573</ele>
        <time>2012-08-14T11:51:22Z</time>
      </trkpt>
      <trkpt lat="48.85095" lon="2.3728">
        <ele>86.96085</ele>
        <time>2012-08-14T11:51:25Z</time>
      </trkpt>
      <trkpt lat="48.85075" lon="2.37284">
        <ele>96.004295</ele>
        <time>2012-08-14T11:52:17Z</time>
      </trkpt>
      <trkpt lat="48.85056" lon="2.37283">
        <ele>100.849434</ele>
        <time>2012-08-14T11:52:25Z</time>
      </trkpt>
      <trkpt lat="48.85036" lon="2.37284">
        <ele>106.7683</ele>
        <time>2012-08-14T11:52:33Z</time>
      </trkpt>
      <trkpt lat="48.84986" lon="2.37271">
        <ele>111.81999</ele>
        <time>2012-08-14T11:53:15Z</time>
      </trkpt>
      <trkpt lat="48.84974" lon="2.3725">
        <ele>109.9254</ele>
        <time>2012-08-14T11:53:24Z</time>
      </trkpt>
      <trkpt lat="48.84958" lon="2.37234">
        <ele>122.54934</ele>
        <time>2012-08-14T11:53:36Z</time>
      </trkpt>
      <trkpt lat="48.84939" lon="2.37226">
        <ele>119.355934</ele>
        <time>2012-08-14T11:53:50Z</time>
      </trkpt>
      <trkpt lat="48.84933" lon="2.37201">
        <ele>112.01041</ele>
        <time>2012-08-14T11:54:15Z</time>
      </trkpt>
      <trkpt lat="48.84914" lon="2.37197">
        <ele>118.311584</ele>
        <time>2012-08-14T11:54:42Z</time>
      </trkpt>
      <trkpt lat="48.8493" lon="2.37185">
        <ele>113.689316</ele>
        <time>2012-08-14T11:55:09Z</time>
      </trkpt>
      <trkpt lat="48.84949" lon="2.37189">
        <ele>118.85463</ele>
        <time>2012-08-14T11:55:27Z</time>
      </trkpt>
      <trkpt lat="48.84939" lon="2.37213">
        <ele>124.05229</ele>
        <time>2012-08-14T11:56:40Z</time>
      </trkpt>
      <trkpt lat="48.84927" lon="2.37191">
        <ele>141.619</ele>
        <time>2012-08-14T11:57:17Z</time>
      </trkpt>
      <trkpt lat="48.84921" lon="2.37163">
        <ele>138.44441</ele>
        <time>2012-08-14T11:57:31Z</time>
      </trkpt>
      <trkpt lat="48.84923" lon="2.37136">
        <ele>125.672676</ele>
        <time>2012-08-14T11:58:20Z</time>
      </trkpt>
      <trkpt lat="48.8493" lon="2.37108">
        <ele>122.8897</ele>
        <time>2012-08-14T11:58:44Z</time>
      </trkpt>
      <trkpt lat="48.84941" lon="2.37086">
        <ele>119.81814</ele>
        <time>2012-08-14T11:59:00Z</time>
      </trkpt>
      <trkpt lat="48.84957" lon="2.37074">
        <ele>121.40355</ele>
        <time>2012-08-14T11:59:32Z</time>
      </trkpt>
      <trkpt lat="48.84964" lon="2.37101">
        <ele>110.19467</ele>
        <time>2012-08-14T11:59:46Z</time>
      </trkpt>
      <trkpt lat="48.8496" lon="2.37129">
        <ele>96.6589</ele>
        <time>2012-08-14T12:00:08Z</time>
      </trkpt>
      <trkpt lat="48.84952" lon="2.37154">
        <ele>99.04282</ele>
        <time>2012-08-14T12:00:44Z</time>
      </trkpt>
      <trkpt lat="48.84943" lon="2.37178">
        <ele>91.5026</ele>
        <time>2012-08-14T12:02:13Z</time>
      </trkpt>
      <trkpt lat="48.84931" lon="2.37201">
        <ele>93.36384</ele>
        <time>2012-08-14T12:02:26Z</time>
      </trkpt>
      <trkpt lat="48.84917" lon="2.37219">
        <ele>95.51094</ele>
        <time>2012-08-14T12:02:39Z</time>
      </trkpt>
      <trkpt lat="48.84907" lon="2.37242">
        <ele>89.87421</ele>
        <time>2012-08-14T12:02:58Z</time>
      </trkpt>
      <trkpt lat="48.84895" lon="2.37264">
        <ele>88.259315</ele>
        <time>2012-08-14T12:03:16Z</time>
      </trkpt>
      <trkpt lat="48.84883" lon="2.37287">
        <ele>88.111</ele>
        <time>2012-08-14T12:03:28Z</time>
      </trkpt>
      <trkpt lat="48.84872" lon="2.37309">
        <ele>91.272354</ele>
        <time>2012-08-14T12:03:41Z</time>
      </trkpt>
      <trkpt lat="48.84858" lon="2.37328">
        <ele>93.04855</ele>
        <time>2012-08-14T12:03:56Z</time>
      </trkpt>
      <trkpt lat="48.84849" lon="2.37351">
        <ele>93.84023</ele>
        <time>2012-08-14T12:04:13Z</time>
      </trkpt>
      <trkpt lat="48.84842" lon="2.37377">
        <ele>88.41447</ele>
        <time>2012-08-14T12:04:42Z</time>
      </trkpt>
      <trkpt lat="48.84831" lon="2.374">
        <ele>84.35094</ele>
        <time>2012-08-14T12:05:00Z</time>
      </trkpt>
      <trkpt lat="48.84819" lon="2.37422">
        <ele>83.71774</ele>
        <time>2012-08-14T12:05:08Z</time>
      </trkpt>
      <trkpt lat="48.84808" lon="2.37445">
        <ele>86.439255</ele>
        <time>2012-08-14T12:05:18Z</time>
      </trkpt>
      <trkpt lat="48.84804" lon="2.37473">
        <ele>87.80809</ele>
        <time>2012-08-14T12:05:32Z</time>
      </trkpt>
      <trkpt lat="48.84792" lon="2.37494">
        <ele>89.100815</ele>
        <time>2012-08-14T12:05:46Z</time>
      </trkpt>
      <trkpt lat="48.84775" lon="2.37503">
        <ele>88.71238</ele>
        <time>2012-08-14T12:06:03Z</time>
      </trkpt>
      <trkpt lat="48.84764" lon="2.37527">
        <ele>87.0562</ele>
        <time>2012-08-14T12:06:17Z</time>
      </trkpt>
      <trkpt lat="48.84753" lon="2.37549">
        <ele>84.00328</ele>
        <time>2012-08-14T12:06:32Z</time>
      </trkpt>
      <trkpt lat="48.84742" lon="2.37572">
        <ele>89.0958</ele>
        <time>2012-08-14T12:06:50Z</time>
      </trkpt>
      <trkpt lat="48.84734" lon="2.37598">
        <ele>88.12483</ele>
        <time>2012-08-14T12:07:06Z</time>
      </trkpt>
      <trkpt lat="48.84724" lon="2.37621">
        <ele>87.7112</ele>
        <time>2012-08-14T12:07:25Z</time>
      </trkpt>
      <trkpt lat="48.84711" lon="2.37644">
        <ele>85.85008</ele>
        <time>2012-08-14T12:07:43Z</time>
      </trkpt>
      <trkpt lat="48.84699" lon="2.37666">
        <ele>85.34221</ele>
        <time>2012-08-14T12:07:52Z</time>
      </trkpt>
      <trkpt lat="48.84688" lon="2.37688">
        <ele>85.4057</ele>
        <time>2012-08-14T12:08:06Z</time>
      </trkpt>
      <trkpt lat="48.8468" lon="2.37715">
        <ele>91.073906</ele>
        <time>2012-08-14T12:08:23Z</time>
      </trkpt>
      <trkpt lat="48.84663" lon="2.37728">
        <ele>94.96346</ele>
        <time>2012-08-14T12:08:49Z</time>
      </trkpt>
      <trkpt lat="48.84654" lon="2.37752">
        <ele>96.62893</ele>
        <time>2012-08-14T12:09:03Z</time>
      </trkpt>
      <trkpt lat="48.84643" lon="2.37776">
        <ele>101.79699</ele>
        <time>2012-08-14T12:09:12Z</time>
      </trkpt>
      <trkpt lat="48.84638" lon="2.37803">
        <ele>95.52501</ele>
        <time>2012-08-14T12:09:30Z</time>
      </trkpt>
      <trkpt lat="48.84626" lon="2.37824">
        <ele>88.94645</ele>
        <time>2012-08-14T12:09:51Z</time>
      </trkpt>
      <trkpt lat="48.84617" lon="2.37849">
        <ele>87.37374</ele>
        <time>2012-08-14T12:10:02Z</time>
      </trkpt>
      <trkpt lat="48.84603" lon="2.37866">
        <ele>84.883156</ele>
        <time>2012-08-14T12:10:23Z</time>
      </trkpt>
      <trkpt lat="48.84593" lon="2.3789">
        <ele>82.035736</ele>
        <time>2012-08-14T12:10:43Z</time>
      </trkpt>
      <trkpt lat="48.84581" lon="2.37915">
        <ele>78.769325</ele>
        <time>2012-08-14T12:10:59Z</time>
      </trkpt>
      <trkpt lat="48.84569" lon="2.37935">
        <ele>80.87376</ele>
        <time>2012-08-14T12:11:08Z</time>
      </trkpt>
      <trkpt lat="48.84557" lon="2.37956">
        <ele>80.69036</ele>
        <time>2012-08-14T12:11:23Z</time>
      </trkpt>
      <trkpt lat="48.84547" lon="2.37982">
        <ele>81.39332</ele>
        <time>2012-08-14T12:11:41Z</time>
      </trkpt>
      <trkpt lat="48.84536" lon="2.38005">
        <ele>79.6406</ele>
        <time>2012-08-14T12:12:13Z</time>
      </trkpt>
      <trkpt lat="48.84526" lon="2.38028">
        <ele>82.07332</ele>
        <time>2012-08-14T12:12:22Z</time>
      </trkpt>
      <trkpt lat="48.84511" lon="2.38048">
        <ele>83.69613</ele>
        <time>2012-08-14T12:12:34Z</time>
      </trkpt>
      <trkpt lat="48.84502" lon="2.38076">
        <ele>81.00091</ele>
        <time>2012-08-14T12:13:03Z</time>
      </trkpt>
      <trkpt lat="48.84491" lon="2.38099">
        <ele>79.97373</ele>
        <time>2012-08-14T12:13:12Z</time>
      </trkpt>
      <trkpt lat="48.8448" lon="2.38125">
        <ele>84.21612</ele>
        <time>2012-08-14T12:13:35Z</time>
      </trkpt>
      <trkpt lat="48.84465" lon="2.38145">
        <ele>84.04675</ele>
        <time>2012-08-14T12:13:42Z</time>
      </trkpt>
      <trkpt lat="48.84456" lon="2.3817">
        <ele>83.27773</ele>
        <time>2012-08-14T12:13:53Z</time>
      </trkpt>
      <trkpt lat="48.84449" lon="2.38196">
        <ele>81.904175</ele>
        <time>2012-08-14T12:14:20Z</time>
      </trkpt>
      <trkpt lat="48.84438" lon="2.3822">
        <ele>80.203384</ele>
        <time>2012-08-14T12:14:39Z</time>
      </trkpt>
      <trkpt lat="48.84433" lon="2.38248">
        <ele>85.182915</ele>
        <time>2012-08-14T12:14:53Z</time>
      </trkpt>
      <trkpt lat="48.84417" lon="2.38266">
        <ele>84.81539</ele>
        <time>2012-08-14T12:15:16Z</time>
      </trkpt>
      <trkpt lat="48.84406" lon="2.38291">
        <ele>89.603645</ele>
        <time>2012-08-14T12:15:24Z</time>
      </trkpt>
      <trkpt lat="48.84397" lon="2.38316">
        <ele>96.005875</ele>
        <time>2012-08-14T12:15:35Z</time>
      </trkpt>
      <trkpt lat="48.84391" lon="2.38342">
        <ele>95.86057</ele>
        <time>2012-08-14T12:15:59Z</time>
      </trkpt>
      <trkpt lat="48.84385" lon="2.3837">
        <ele>96.84857</ele>
        <time>2012-08-14T12:16:11Z</time>
      </trkpt>
      <trkpt lat="48.8437" lon="2.38389">
        <ele>95.234184</ele>
        <time>2012-08-14T12:16:36Z</time>
      </trkpt>
      <trkpt lat="48.84356" lon="2.3841">
        <ele>93.34073</ele>
        <time>2012-08-14T12:16:44Z</time>
      </trkpt>
      <trkpt lat="48.84343" lon="2.38428">
        <ele>88.7906</ele>
        <time>2012-08-14T12:17:08Z</time>
      </trkpt>
      <trkpt lat="48.84328" lon="2.38446">
        <ele>86.679146</ele>
        <time>2012-08-14T12:17:19Z</time>
      </trkpt>
      <trkpt lat="48.84317" lon="2.38468">
        <ele>86.09763</ele>
        <time>2012-08-14T12:17:31Z</time>
      </trkpt>
      <trkpt lat="48.84305" lon="2.3849">
        <ele>89.28199</ele>
        <time>2012-08-14T12:17:49Z</time>
      </trkpt>
      <trkpt lat="48.84301" lon="2.38517">
        <ele>95.99317</ele>
        <time>2012-08-14T12:18:23Z</time>
      </trkpt>
      <trkpt lat="48.84293" lon="2.38544">
        <ele>94.783966</ele>
        <time>2012-08-14T12:18:32Z</time>
      </trkpt>
      <trkpt lat="48.8428" lon="2.38564">
        <ele>92.25566</ele>
        <time>2012-08-14T12:18:39Z</time>
      </trkpt>
      <trkpt lat="48.84265" lon="2.38583">
        <ele>90.58383</ele>
        <time>2012-08-14T12:18:47Z</time>
      </trkpt>
      <trkpt lat="48.84273" lon="2.38608">
        <ele>92.09931</ele>
        <time>2012-08-14T12:18:58Z</time>
      </trkpt>
      <trkpt lat="48.84265" lon="2.38633">
        <ele>86.786804</ele>
        <time>2012-08-14T12:19:18Z</time>
      </trkpt>
      <trkpt lat="48.84253" lon="2.38653">
        <ele>88.973206</ele>
        <time>2012-08-14T12:19:29Z</time>
      </trkpt>
      <trkpt lat="48.84244" lon="2.38678">
        <ele>90.92718</ele>
        <time>2012-08-14T12:19:43Z</time>
      </trkpt>
      <trkpt lat="48.8425" lon="2.38704">
        <ele>88.08173</ele>
        <time>2012-08-14T12:20:02Z</time>
      </trkpt>
      <trkpt lat="48.84244" lon="2.3873">
        <ele>88.08906</ele>
        <time>2012-08-14T12:20:17Z</time>
      </trkpt>
      <trkpt lat="48.84237" lon="2.38756">
        <ele>89.04263</ele>
        <time>2012-08-14T12:20:34Z</time>
      </trkpt>
      <trkpt lat="48.84234" lon="2.38783">
        <ele>92.65923</ele>
        <time>2012-08-14T12:20:55Z</time>
      </trkpt>
      <trkpt lat="48.84226" lon="2.38808">
        <ele>88.48606</ele>
        <time>2012-08-14T12:21:09Z</time>
      </trkpt>
      <trkpt lat="48.84221" lon="2.38835">
        <ele>87.26082</ele>
        <time>2012-08-14T12:21:30Z</time>
      </trkpt>
      <trkpt lat="48.84214" lon="2.38864">
        <ele>84.56117</ele>
        <time>2012-08-14T12:21:53Z</time>
      </trkpt>
      <trkpt lat="48.84203" lon="2.38889">
        <ele>85.36095</ele>
        <time>2012-08-14T12:22:05Z</time>
      </trkpt>
      <trkpt lat="48.84198" lon="2.38916">
        <ele>87.06519</ele>
        <time>2012-08-14T12:22:19Z</time>
      </trkpt>
      <trkpt lat="48.84195" lon="2.38944">
        <ele>87.18234</ele>
        <time>2012-08-14T12:22:41Z</time>
      </trkpt>
      <trkpt lat="48.84195" lon="2.38972">
        <ele>87.42324</ele>
        <time>2012-08-14T12:23:05Z</time>
      </trkpt>
      <trkpt lat="48.84179" lon="2.38993">
        <ele>93.915855</ele>
        <time>2012-08-14T12:23:23Z</time>
      </trkpt>
      <trkpt lat="48.84169" lon="2.39019">
        <ele>100.41131</ele>
        <time>2012-08-14T12:23:55Z</time>
      </trkpt>
      <trkpt lat="48.84165" lon="2.39047">
        <ele>105.99725</ele>
        <time>2012-08-14T12:24:04Z</time>
      </trkpt>
      <trkpt lat="48.84157" lon="2.39073">
        <ele>108.201355</ele>
        <time>2012-08-14T12:24:22Z</time>
      </trkpt>
      <trkpt lat="48.84149" lon="2.39101">
        <ele>108.39543</ele>
        <time>2012-08-14T12:24:30Z</time>
      </trkpt>
      <trkpt lat="48.8414" lon="2.39127">
        <ele>108.02733</ele>
        <time>2012-08-14T12:24:37Z</time>
      </trkpt>
      <trkpt lat="48.84139" lon="2.39155">
        <ele>109.18125</ele>
        <time>2012-08-14T12:24:53Z</time>
      </trkpt>
      <trkpt lat="48.84128" lon="2.39178">
        <ele>111.27395</ele>
        <time>2012-08-14T12:25:11Z</time>
      </trkpt>
      <trkpt lat="48.84124" lon="2.39207">
        <ele>121.7324</ele>
        <time>2012-08-14T12:25:36Z</time>
      </trkpt>
      <trkpt lat="48.84118" lon="2.39235">
        <ele>127.115166</ele>
        <time>2012-08-14T12:25:45Z</time>
      </trkpt>
      <trkpt lat="48.84111" lon="2.39262">
        <ele>127.47094</ele>
        <time>2012-08-14T12:25:53Z</time>
      </trkpt>
      <trkpt lat="48.841" lon="2.39287">
        <ele>119.32006</ele>
        <time>2012-08-14T12:26:01Z</time>
      </trkpt>
      <trkpt lat="48.84098" lon="2.39315">
        <ele>117.09756</ele>
        <time>2012-08-14T12:26:12Z</time>
      </trkpt>
      <trkpt lat="48.84103" lon="2.39342">
        <ele>113.78895</ele>
        <time>2012-08-14T12:26:27Z</time>
      </trkpt>
      <trkpt lat="48.84114" lon="2.39363">
        <ele>112.345894</ele>
        <time>2012-08-14T12:26:44Z</time>
      </trkpt>
      <trkpt lat="48.84121" lon="2.39561">
        <ele>111.560646</ele>
        <time>2012-08-14T12:28:14Z</time>
      </trkpt>
      <trkpt lat="48.84119" lon="2.39588">
        <ele>99.90493</ele>
        <time>2012-08-14T12:28:51Z</time>
      </trkpt>
      <trkpt lat="48.84116" lon="2.39617">
        <ele>95.37751</ele>
        <time>2012-08-14T12:29:12Z</time>
      </trkpt>
      <trkpt lat="48.84112" lon="2.39645">
        <ele>90.7906</ele>
        <time>2012-08-14T12:29:26Z</time>
      </trkpt>
      <trkpt lat="48.8411" lon="2.39673">
        <ele>92.64408</ele>
        <time>2012-08-14T12:29:41Z</time>
      </trkpt>
      <trkpt lat="48.84113" lon="2.39702">
        <ele>94.22854</ele>
        <time>2012-08-14T12:29:57Z</time>
      </trkpt>
      <trkpt lat="48.84115" lon="2.39731">
        <ele>94.30116</ele>
        <time>2012-08-14T12:30:14Z</time>
      </trkpt>
      <trkpt lat="48.84112" lon="2.39759">
        <ele>95.473854</ele>
        <time>2012-08-14T12:30:29Z</time>
      </trkpt>
      <trkpt lat="48.84111" lon="2.39787">
        <ele>95.169304</ele>
        <time>2012-08-14T12:30:44Z</time>
      </trkpt>
      <trkpt lat="48.8411" lon="2.39815">
        <ele>95.33272</ele>
        <time>2012-08-14T12:30:57Z</time>
      </trkpt>
      <trkpt lat="48.84108" lon="2.39844">
        <ele>95.0103</ele>
        <time>2012-08-14T12:31:14Z</time>
      </trkpt>
      <trkpt lat="48.84103" lon="2.39941">
        <ele>96.35593</ele>
        <time>2012-08-14T12:32:35Z</time>
      </trkpt>
      <trkpt lat="48.84103" lon="2.39968">
        <ele>92.66569</ele>
        <time>2012-08-14T12:32:48Z</time>
      </trkpt>
      <trkpt lat="48.8411" lon="2.39994">
        <ele>90.49138</ele>
        <time>2012-08-14T12:33:06Z</time>
      </trkpt>
      <trkpt lat="48.84109" lon="2.40023">
        <ele>90.81582</ele>
        <time>2012-08-14T12:33:18Z</time>
      </trkpt>
      <trkpt lat="48.84091" lon="2.40031">
        <ele>91.43519</ele>
        <time>2012-08-14T12:33:50Z</time>
      </trkpt>
      <trkpt lat="48.84078" lon="2.40091">
        <ele>90.83984</ele>
        <time>2012-08-14T12:34:22Z</time>
      </trkpt>
      <trkpt lat="48.84094" lon="2.40114">
        <ele>90.315605</ele>
        <time>2012-08-14T12:34:27Z</time>
      </trkpt>
      <trkpt lat="48.84107" lon="2.40134">
        <ele>92.80239</ele>
        <time>2012-08-14T12:34:37Z</time>
      </trkpt>
      <trkpt lat="48.84102" lon="2.40161">
        <ele>93.79219</ele>
        <time>2012-08-14T12:34:52Z</time>
      </trkpt>
      <trkpt lat="48.84093" lon="2.40186">
        <ele>92.00258</ele>
        <time>2012-08-14T12:35:02Z</time>
      </trkpt>
      <trkpt lat="48.84099" lon="2.40214">
        <ele>90.69341</ele>
        <time>2012-08-14T12:35:30Z</time>
      </trkpt>
      <trkpt lat="48.84092" lon="2.40239">
        <ele>93.9809</ele>
        <time>2012-08-14T12:35:37Z</time>
      </trkpt>
      <trkpt lat="48.84095" lon="2.40267">
        <ele>90.95234</ele>
        <time>2012-08-14T12:35:51Z</time>
      </trkpt>
      <trkpt lat="48.84093" lon="2.40295">
        <ele>86.409325</ele>
        <time>2012-08-14T12:36:18Z</time>
      </trkpt>
      <trkpt lat="48.8409" lon="2.40322">
        <ele>84.72173</ele>
        <time>2012-08-14T12:36:29Z</time>
      </trkpt>
      <trkpt lat="48.84083" lon="2.40348">
        <ele>83.88032</ele>
        <time>2012-08-14T12:36:40Z</time>
      </trkpt>
      <trkpt lat="48.8408" lon="2.40376">
        <ele>86.33638</ele>
        <time>2012-08-14T12:36:52Z</time>
      </trkpt>
      <trkpt lat="48.84075" lon="2.40403">
        <ele>86.51659</ele>
        <time>2012-08-14T12:37:09Z</time>
      </trkpt>
      <trkpt lat="48.84074" lon="2.40433">
        <ele>89.23965</ele>
        <time>2012-08-14T12:37:19Z</time>
      </trkpt>
      <trkpt lat="48.84068" lon="2.40461">
        <ele>93.652016</ele>
        <time>2012-08-14T12:37:32Z</time>
      </trkpt>
      <trkpt lat="48.8406" lon="2.40486">
        <ele>95.51407</ele>
        <time>2012-08-14T12:37:49Z</time>
      </trkpt>
      <trkpt lat="48.84048" lon="2.4051">
        <ele>94.94178</ele>
        <time>2012-08-14T12:38:02Z</time>
      </trkpt>
      <trkpt lat="48.84039" lon="2.40535">
        <ele>99.1685</ele>
        <time>2012-08-14T12:38:21Z</time>
      </trkpt>
      <trkpt lat="48.84025" lon="2.40555">
        <ele>100.99587</ele>
        <time>2012-08-14T12:38:35Z</time>
      </trkpt>
      <trkpt lat="48.84011" lon="2.40574">
        <ele>98.205154</ele>
        <time>2012-08-14T12:38:46Z</time>
      </trkpt>
      <trkpt lat="48.83993" lon="2.40585">
        <ele>91.618004</ele>
        <time>2012-08-14T12:39:04Z</time>
      </trkpt>
      <trkpt lat="48.83974" lon="2.40586">
        <ele>91.448235</ele>
        <time>2012-08-14T12:39:18Z</time>
      </trkpt>
      <trkpt lat="48.83955" lon="2.40588">
        <ele>97.98219</ele>
        <time>2012-08-14T12:39:31Z</time>
      </trkpt>
      <trkpt lat="48.83941" lon="2.40609">
        <ele>97.581985</ele>
        <time>2012-08-14T12:39:44Z</time>
      </trkpt>
      <trkpt lat="48.83925" lon="2.40623">
        <ele>101.00748</ele>
        <time>2012-08-14T12:39:57Z</time>
      </trkpt>
      <trkpt lat="48.83907" lon="2.40632">
        <ele>98.721924</ele>
        <time>2012-08-14T12:40:23Z</time>
      </trkpt>
      <trkpt lat="48.83889" lon="2.4064">
        <ele>96.372154</ele>
        <time>2012-08-14T12:40:52Z</time>
      </trkpt>
      <trkpt lat="48.83871" lon="2.40646">
        <ele>99.594765</ele>
        <time>2012-08-14T12:41:34Z</time>
      </trkpt>
      <trkpt lat="48.83867" lon="2.40652">
        <ele>104.64353</ele>
        <time>2012-08-14T12:43:23Z</time>
      </trkpt>
      <trkpt lat="48.83882" lon="2.40667">
        <ele>99.47349</ele>
        <time>2012-08-14T12:46:26Z</time>
      </trkpt>
      <trkpt lat="48.83902" lon="2.40668">
        <ele>96.06995</ele>
        <time>2012-08-14T12:53:22Z</time>
      </trkpt>
      <trkpt lat="48.83919" lon="2.4066">
        <ele>98.71153</ele>
        <time>2012-08-14T12:53:43Z</time>
      </trkpt>
      <trkpt lat="48.83937" lon="2.40664">
        <ele>97.720985</ele>
        <time>2012-08-14T12:54:37Z</time>
      </trkpt>
      <trkpt lat="48.83955" lon="2.40669">
        <ele>95.16426</ele>
        <time>2012-08-14T12:55:01Z</time>
      </trkpt>
      <trkpt lat="48.83973" lon="2.40663">
        <ele>98.85526</ele>
        <time>2012-08-14T12:55:35Z</time>
      </trkpt>
      <trkpt lat="48.8399" lon="2.40653">
        <ele>100.485985</ele>
        <time>2012-08-14T12:55:56Z</time>
      </trkpt>
      <trkpt lat="48.84005" lon="2.40635">
        <ele>109.01286</ele>
        <time>2012-08-14T12:56:05Z</time>
      </trkpt>
      <trkpt lat="48.84023" lon="2.40638">
        <ele>114.177216</ele>
        <time>2012-08-14T12:56:38Z</time>
      </trkpt>
      <trkpt lat="48.84041" lon="2.40633">
        <ele>108.3545</ele>
        <time>2012-08-14T12:56:53Z</time>
      </trkpt>
      <trkpt lat="48.84054" lon="2.40655">
        <ele>104.072914</ele>
        <time>2012-08-14T12:57:10Z</time>
      </trkpt>
      <trkpt lat="48.84058" lon="2.40682">
        <ele>100.47328</ele>
        <time>2012-08-14T12:57:31Z</time>
      </trkpt>
      <trkpt lat="48.84058" lon="2.4071">
        <ele>100.36187</ele>
        <time>2012-08-14T12:57:40Z</time>
      </trkpt>
      <trkpt lat="48.84055" lon="2.40738">
        <ele>100.30703</ele>
        <time>2012-08-14T12:58:09Z</time>
      </trkpt>
      <trkpt lat="48.84059" lon="2.40765">
        <ele>102.01042</ele>
        <time>2012-08-14T12:58:22Z</time>
      </trkpt>
      <trkpt lat="48.84048" lon="2.40789">
        <ele>100.755165</ele>
        <time>2012-08-14T12:58:37Z</time>
      </trkpt>
      <trkpt lat="48.84032" lon="2.40805">
        <ele>99.3493</ele>
        <time>2012-08-14T12:58:46Z</time>
      </trkpt>
      <trkpt lat="48.84017" lon="2.40827">
        <ele>94.80231</ele>
        <time>2012-08-14T12:58:55Z</time>
      </trkpt>
      <trkpt lat="48.84026" lon="2.40855">
        <ele>94.69297</ele>
        <time>2012-08-14T12:59:05Z</time>
      </trkpt>
      <trkpt lat="48.84032" lon="2.40986">
        <ele>96.97084</ele>
        <time>2012-08-14T13:00:18Z</time>
      </trkpt>
      <trkpt lat="48.84047" lon="2.41004">
        <ele>97.82462</ele>
        <time>2012-08-14T13:00:25Z</time>
      </trkpt>
      <trkpt lat="48.84047" lon="2.41032">
        <ele>93.80287</ele>
        <time>2012-08-14T13:00:39Z</time>
      </trkpt>
      <trkpt lat="48.84062" lon="2.41049">
        <ele>96.62316</ele>
        <time>2012-08-14T13:00:51Z</time>
      </trkpt>
      <trkpt lat="48.84061" lon="2.41078">
        <ele>96.22573</ele>
        <time>2012-08-14T13:01:07Z</time>
      </trkpt>
      <trkpt lat="48.84067" lon="2.41107">
        <ele>96.67801</ele>
        <time>2012-08-14T13:01:24Z</time>
      </trkpt>
      <trkpt lat="48.84077" lon="2.4113">
        <ele>96.687614</ele>
        <time>2012-08-14T13:01:33Z</time>
      </trkpt>
      <trkpt lat="48.84083" lon="2.41158">
        <ele>92.84883</ele>
        <time>2012-08-14T13:01:52Z</time>
      </trkpt>
      <trkpt lat="48.84084" lon="2.41186">
        <ele>87.00654</ele>
        <time>2012-08-14T13:02:09Z</time>
      </trkpt>
      <trkpt lat="48.84088" lon="2.41213">
        <ele>88.569756</ele>
        <time>2012-08-14T13:02:22Z</time>
      </trkpt>
      <trkpt lat="48.84092" lon="2.4124">
        <ele>88.50298</ele>
        <time>2012-08-14T13:02:45Z</time>
      </trkpt>
      <trkpt lat="48.84089" lon="2.41268">
        <ele>85.532555</ele>
        <time>2012-08-14T13:03:01Z</time>
      </trkpt>
      <trkpt lat="48.84088" lon="2.41296">
        <ele>84.819</ele>
        <time>2012-08-14T13:03:13Z</time>
      </trkpt>
      <trkpt lat="48.84076" lon="2.41319">
        <ele>84.962234</ele>
        <time>2012-08-14T13:03:30Z</time>
      </trkpt>
      <trkpt lat="48.84058" lon="2.41314">
        <ele>84.042336</ele>
        <time>2012-08-14T13:03:47Z</time>
      </trkpt>
      <trkpt lat="48.8404" lon="2.4131">
        <ele>85.42674</ele>
        <time>2012-08-14T13:04:09Z</time>
      </trkpt>
      <trkpt lat="48.8402" lon="2.4131">
        <ele>86.78313</ele>
        <time>2012-08-14T13:04:18Z</time>
      </trkpt>
      <trkpt lat="48.84003" lon="2.41302">
        <ele>89.349556</ele>
        <time>2012-08-14T13:04:30Z</time>
      </trkpt>
      <trkpt lat="48.83984" lon="2.41302">
        <ele>93.00874</ele>
        <time>2012-08-14T13:04:42Z</time>
      </trkpt>
      <trkpt lat="48.83983" lon="2.41329">
        <ele>95.27205</ele>
        <time>2012-08-14T13:04:59Z</time>
      </trkpt>
      <trkpt lat="48.83978" lon="2.4136">
        <ele>97.35303</ele>
        <time>2012-08-14T13:05:08Z</time>
      </trkpt>
      <trkpt lat="48.83976" lon="2.41389">
        <ele>101.38005</ele>
        <time>2012-08-14T13:05:18Z</time>
      </trkpt>
      <trkpt lat="48.83995" lon="2.41383">
        <ele>104.6487</ele>
        <time>2012-08-14T13:05:34Z</time>
      </trkpt>
      <trkpt lat="48.84013" lon="2.41391">
        <ele>102.979324</ele>
        <time>2012-08-14T13:05:47Z</time>
      </trkpt>
      <trkpt lat="48.84032" lon="2.414">
        <ele>102.20149</ele>
        <time>2012-08-14T13:06:00Z</time>
      </trkpt>
      <trkpt lat="48.84049" lon="2.41406">
        <ele>95.02392</ele>
        <time>2012-08-14T13:06:14Z</time>
      </trkpt>
      <trkpt lat="48.84068" lon="2.41405">
        <ele>97.80772</ele>
        <time>2012-08-14T13:06:29Z</time>
      </trkpt>
      <trkpt lat="48.84087" lon="2.41407">
        <ele>95.59775</ele>
        <time>2012-08-14T13:06:46Z</time>
      </trkpt>
      <trkpt lat="48.84105" lon="2.41413">
        <ele>95.85932</ele>
        <time>2012-08-14T13:07:00Z</time>
      </trkpt>
      <trkpt lat="48.84124" lon="2.41408">
        <ele>92.94773</ele>
        <time>2012-08-14T13:07:12Z</time>
      </trkpt>
      <trkpt lat="48.84142" lon="2.41412">
        <ele>94.5143</ele>
        <time>2012-08-14T13:07:26Z</time>
      </trkpt>
      <trkpt lat="48.8416" lon="2.41417">
        <ele>92.49258</ele>
        <time>2012-08-14T13:07:39Z</time>
      </trkpt>
      <trkpt lat="48.84178" lon="2.41425">
        <ele>94.354546</ele>
        <time>2012-08-14T13:07:54Z</time>
      </trkpt>
      <trkpt lat="48.84196" lon="2.41422">
        <ele>99.05575</ele>
        <time>2012-08-14T13:08:10Z</time>
      </trkpt>
      <trkpt lat="48.84216" lon="2.41422">
        <ele>96.937454</ele>
        <time>2012-08-14T13:08:31Z</time>
      </trkpt>
      <trkpt lat="48.84234" lon="2.41425">
        <ele>97.60553</ele>
        <time>2012-08-14T13:08:46Z</time>
      </trkpt>
      <trkpt lat="48.84251" lon="2.41435">
        <ele>94.960045</ele>
        <time>2012-08-14T13:08:57Z</time>
      </trkpt>
      <trkpt lat="48.84269" lon="2.41439">
        <ele>98.09586</ele>
        <time>2012-08-14T13:09:13Z</time>
      </trkpt>
      <trkpt lat="48.84288" lon="2.41436">
        <ele>103.826515</ele>
        <time>2012-08-14T13:09:35Z</time>
      </trkpt>
      <trkpt lat="48.84301" lon="2.41455">
        <ele>102.28598</ele>
        <time>2012-08-14T13:09:59Z</time>
      </trkpt>
      <trkpt lat="48.84317" lon="2.4147">
        <ele>100.6961</ele>
        <time>2012-08-14T13:11:53Z</time>
      </trkpt>
      <trkpt lat="48.84327" lon="2.41494">
        <ele>101.419525</ele>
        <time>2012-08-14T13:12:09Z</time>
      </trkpt>
      <trkpt lat="48.84333" lon="2.4152">
        <ele>103.516235</ele>
        <time>2012-08-14T13:12:35Z</time>
      </trkpt>
      <trkpt lat="48.84326" lon="2.41548">
        <ele>107.87618</ele>
        <time>2012-08-14T13:12:44Z</time>
      </trkpt>
      <trkpt lat="48.84329" lon="2.41575">
        <ele>110.65019</ele>
        <time>2012-08-14T13:12:56Z</time>
      </trkpt>
      <trkpt lat="48.8434" lon="2.41599">
        <ele>112.15751</ele>
        <time>2012-08-14T13:13:06Z</time>
      </trkpt>
      <trkpt lat="48.84348" lon="2.41623">
        <ele>109.48418</ele>
        <time>2012-08-14T13:13:21Z</time>
      </trkpt>
      <trkpt lat="48.84344" lon="2.41651">
        <ele>107.57667</ele>
        <time>2012-08-14T13:13:41Z</time>
      </trkpt>
      <trkpt lat="48.84336" lon="2.41676">
        <ele>103.776985</ele>
        <time>2012-08-14T13:13:52Z</time>
      </trkpt>
      <trkpt lat="48.84347" lon="2.41698">
        <ele>99.49502</ele>
        <time>2012-08-14T13:14:06Z</time>
      </trkpt>
      <trkpt lat="48.84343" lon="2.41725">
        <ele>96.063736</ele>
        <time>2012-08-14T13:14:21Z</time>
      </trkpt>
      <trkpt lat="48.84344" lon="2.41752">
        <ele>94.456696</ele>
        <time>2012-08-14T13:14:42Z</time>
      </trkpt>
      <trkpt lat="48.84352" lon="2.41777">
        <ele>90.659386</ele>
        <time>2012-08-14T13:15:33Z</time>
      </trkpt>
      <trkpt lat="48.84352" lon="2.41806">
        <ele>96.489395</ele>
        <time>2012-08-14T13:15:51Z</time>
      </trkpt>
      <trkpt lat="48.84348" lon="2.41834">
        <ele>99.29669</ele>
        <time>2012-08-14T13:16:06Z</time>
      </trkpt>
      <trkpt lat="48.84346" lon="2.41861">
        <ele>99.136536</ele>
        <time>2012-08-14T13:16:20Z</time>
      </trkpt>
      <trkpt lat="48.84349" lon="2.41889">
        <ele>100.574005</ele>
        <time>2012-08-14T13:16:38Z</time>
      </trkpt>
      <trkpt lat="48.84351" lon="2.41917">
        <ele>100.43068</ele>
        <time>2012-08-14T13:16:51Z</time>
      </trkpt>
      <trkpt lat="48.84344" lon="2.41943">
        <ele>97.74937</ele>
        <time>2012-08-14T13:17:08Z</time>
      </trkpt>
      <trkpt lat="48.84339" lon="2.4197">
        <ele>94.27702</ele>
        <time>2012-08-14T13:17:23Z</time>
      </trkpt>
      <trkpt lat="48.84334" lon="2.41997">
        <ele>100.97456</ele>
        <time>2012-08-14T13:17:37Z</time>
      </trkpt>
      <trkpt lat="48.84316" lon="2.42">
        <ele>101.22494</ele>
        <time>2012-08-14T13:17:55Z</time>
      </trkpt>
      <trkpt lat="48.84307" lon="2.42024">
        <ele>104.278404</ele>
        <time>2012-08-14T13:18:15Z</time>
      </trkpt>
      <trkpt lat="48.84291" lon="2.42011">
        <ele>103.90457</ele>
        <time>2012-08-14T13:18:29Z</time>
      </trkpt>
      <trkpt lat="48.84277" lon="2.41991">
        <ele>107.530754</ele>
        <time>2012-08-14T13:18:56Z</time>
      </trkpt>
      <trkpt lat="48.84259" lon="2.41982">
        <ele>110.14991</ele>
        <time>2012-08-14T13:19:11Z</time>
      </trkpt>
      <trkpt lat="48.8424" lon="2.4199">
        <ele>102.9972</ele>
        <time>2012-08-14T13:19:23Z</time>
      </trkpt>
      <trkpt lat="48.84224" lon="2.42003">
        <ele>100.118645</ele>
        <time>2012-08-14T13:19:43Z</time>
      </trkpt>
      <trkpt lat="48.84205" lon="2.42">
        <ele>97.79318</ele>
        <time>2012-08-14T13:19:59Z</time>
      </trkpt>
      <trkpt lat="48.84187" lon="2.42002">
        <ele>93.17296</ele>
        <time>2012-08-14T13:20:16Z</time>
      </trkpt>
      <trkpt lat="48.84172" lon="2.42018">
        <ele>94.98903</ele>
        <time>2012-08-14T13:20:35Z</time>
      </trkpt>
      <trkpt lat="48.84157" lon="2.42035">
        <ele>92.139946</ele>
        <time>2012-08-14T13:20:46Z</time>
      </trkpt>
      <trkpt lat="48.8414" lon="2.42046">
        <ele>86.34924</ele>
        <time>2012-08-14T13:21:03Z</time>
      </trkpt>
      <trkpt lat="48.84126" lon="2.42064">
        <ele>86.688515</ele>
        <time>2012-08-14T13:21:20Z</time>
      </trkpt>
      <trkpt lat="48.84123" lon="2.42092">
        <ele>83.1145</ele>
        <time>2012-08-14T13:21:38Z</time>
      </trkpt>
      <trkpt lat="48.84122" lon="2.4212">
        <ele>84.669106</ele>
        <time>2012-08-14T13:21:58Z</time>
      </trkpt>
      <trkpt lat="48.84121" lon="2.42149">
        <ele>89.82075</ele>
        <time>2012-08-14T13:22:11Z</time>
      </trkpt>
      <trkpt lat="48.84129" lon="2.42176">
        <ele>91.44526</ele>
        <time>2012-08-14T13:22:24Z</time>
      </trkpt>
      <trkpt lat="48.84133" lon="2.42204">
        <ele>92.8511</ele>
        <time>2012-08-14T13:22:41Z</time>
      </trkpt>
      <trkpt lat="48.84115" lon="2.42209">
        <ele>87.571655</ele>
        <time>2012-08-14T13:22:59Z</time>
      </trkpt>
      <trkpt lat="48.84097" lon="2.42219">
        <ele>86.265305</ele>
        <time>2012-08-14T13:23:23Z</time>
      </trkpt>
      <trkpt lat="48.8408" lon="2.42225">
        <ele>88.666145</ele>
        <time>2012-08-14T13:23:40Z</time>
      </trkpt>
      <trkpt lat="48.84061" lon="2.42226">
        <ele>90.128456</ele>
        <time>2012-08-14T13:23:56Z</time>
      </trkpt>
      <trkpt lat="48.84043" lon="2.42224">
        <ele>93.8781</ele>
        <time>2012-08-14T13:24:12Z</time>
      </trkpt>
      <trkpt lat="48.84025" lon="2.4223">
        <ele>98.74717</ele>
        <time>2012-08-14T13:24:28Z</time>
      </trkpt>
      <trkpt lat="48.84007" lon="2.42235">
        <ele>97.04313</ele>
        <time>2012-08-14T13:24:44Z</time>
      </trkpt>
      <trkpt lat="48.83989" lon="2.42237">
        <ele>96.30922</ele>
        <time>2012-08-14T13:24:58Z</time>
      </trkpt>
      <trkpt lat="48.83971" lon="2.4224">
        <ele>97.153824</ele>
        <time>2012-08-14T13:25:15Z</time>
      </trkpt>
      <trkpt lat="48.83953" lon="2.42246">
        <ele>101.021225</ele>
        <time>2012-08-14T13:25:29Z</time>
      </trkpt>
      <trkpt lat="48.83935" lon="2.42247">
        <ele>101.540726</ele>
        <time>2012-08-14T13:25:43Z</time>
      </trkpt>
      <trkpt lat="48.83918" lon="2.42258">
        <ele>101.456055</ele>
        <time>2012-08-14T13:25:59Z</time>
      </trkpt>
      <trkpt lat="48.839" lon="2.42263">
        <ele>102.95411</ele>
        <time>2012-08-14T13:26:16Z</time>
      </trkpt>
      <trkpt lat="48.83882" lon="2.42266">
        <ele>98.98915</ele>
        <time>2012-08-14T13:26:34Z</time>
      </trkpt>
      <trkpt lat="48.83862" lon="2.42267">
        <ele>96.08903</ele>
        <time>2012-08-14T13:26:47Z</time>
      </trkpt>
      <trkpt lat="48.83843" lon="2.42263">
        <ele>97.91247</ele>
        <time>2012-08-14T13:27:06Z</time>
      </trkpt>
      <trkpt lat="48.83824" lon="2.4226">
        <ele>95.10572</ele>
        <time>2012-08-14T13:27:20Z</time>
      </trkpt>
      <trkpt lat="48.83805" lon="2.42261">
        <ele>94.210594</ele>
        <time>2012-08-14T13:30:03Z</time>
      </trkpt>
      <trkpt lat="48.83785" lon="2.42256">
        <ele>95.69151</ele>
        <time>2012-08-14T13:30:13Z</time>
      </trkpt>
      <trkpt lat="48.83767" lon="2.42257">
        <ele>98.77879</ele>
        <time>2012-08-14T13:30:23Z</time>
      </trkpt>
      <trkpt lat="48.83751" lon="2.4227">
        <ele>98.75962</ele>
        <time>2012-08-14T13:30:35Z</time>
      </trkpt>
      <trkpt lat="48.83733" lon="2.42276">
        <ele>99.489006</ele>
        <time>2012-08-14T13:30:53Z</time>
      </trkpt>
      <trkpt lat="48.83719" lon="2.4226">
        <ele>98.81892</ele>
        <time>2012-08-14T13:31:18Z</time>
      </trkpt>
      <trkpt lat="48.83701" lon="2.42249">
        <ele>95.79763</ele>
        <time>2012-08-14T13:31:36Z</time>
      </trkpt>
      <trkpt lat="48.83684" lon="2.42235">
        <ele>96.56612</ele>
        <time>2012-08-14T13:31:44Z</time>
      </trkpt>
      <trkpt lat="48.83665" lon="2.42226">
        <ele>99.2553</ele>
        <time>2012-08-14T13:32:07Z</time>
      </trkpt>
      <trkpt lat="48.83646" lon="2.42219">
        <ele>97.77735</ele>
        <time>2012-08-14T13:32:15Z</time>
      </trkpt>
      <trkpt lat="48.83627" lon="2.42212">
        <ele>98.292595</ele>
        <time>2012-08-14T13:32:27Z</time>
      </trkpt>
      <trkpt lat="48.83609" lon="2.42208">
        <ele>98.04909</ele>
        <time>2012-08-14T13:32:43Z</time>
      </trkpt>
      <trkpt lat="48.8359" lon="2.42211">
        <ele>92.33052</ele>
        <time>2012-08-14T13:32:59Z</time>
      </trkpt>
      <trkpt lat="48.83573" lon="2.42202">
        <ele>92.9477</ele>
        <time>2012-08-14T13:33:24Z</time>
      </trkpt>
      <trkpt lat="48.83559" lon="2.42222">
        <ele>96.51987</ele>
        <time>2012-08-14T13:33:41Z</time>
      </trkpt>
      <trkpt lat="48.83542" lon="2.42233">
        <ele>93.86485</ele>
        <time>2012-08-14T13:33:59Z</time>
      </trkpt>
      <trkpt lat="48.8353" lon="2.42255">
        <ele>95.36549</ele>
        <time>2012-08-14T13:34:16Z</time>
      </trkpt>
      <trkpt lat="48.83513" lon="2.42266">
        <ele>95.24407</ele>
        <time>2012-08-14T13:34:33Z</time>
      </trkpt>
      <trkpt lat="48.83495" lon="2.42265">
        <ele>94.940796</ele>
        <time>2012-08-14T13:34:50Z</time>
      </trkpt>
      <trkpt lat="48.83477" lon="2.42275">
        <ele>96.149475</ele>
        <time>2012-08-14T13:35:07Z</time>
      </trkpt>
      <trkpt lat="48.83458" lon="2.42278">
        <ele>97.70914</ele>
        <time>2012-08-14T13:35:20Z</time>
      </trkpt>
      <trkpt lat="48.8344" lon="2.42278">
        <ele>99.543625</ele>
        <time>2012-08-14T13:35:37Z</time>
      </trkpt>
      <trkpt lat="48.83422" lon="2.42278">
        <ele>102.00695</ele>
        <time>2012-08-14T13:35:54Z</time>
      </trkpt>
      <trkpt lat="48.83405" lon="2.42288">
        <ele>101.68884</ele>
        <time>2012-08-14T13:36:14Z</time>
      </trkpt>
      <trkpt lat="48.83386" lon="2.42292">
        <ele>102.27659</ele>
        <time>2012-08-14T13:36:29Z</time>
      </trkpt>
      <trkpt lat="48.83368" lon="2.42294">
        <ele>102.00261</ele>
        <time>2012-08-14T13:36:43Z</time>
      </trkpt>
      <trkpt lat="48.8335" lon="2.42297">
        <ele>99.072235</ele>
        <time>2012-08-14T13:37:01Z</time>
      </trkpt>
      <trkpt lat="48.83331" lon="2.423">
        <ele>96.65982</ele>
        <time>2012-08-14T13:37:14Z</time>
      </trkpt>
      <trkpt lat="48.83313" lon="2.42304">
        <ele>92.43342</ele>
        <time>2012-08-14T13:37:30Z</time>
      </trkpt>
      <trkpt lat="48.83295" lon="2.42305">
        <ele>90.55769</ele>
        <time>2012-08-14T13:37:46Z</time>
      </trkpt>
      <trkpt lat="48.83277" lon="2.4231">
        <ele>88.991585</ele>
        <time>2012-08-14T13:38:03Z</time>
      </trkpt>
      <trkpt lat="48.83259" lon="2.42313">
        <ele>82.439354</ele>
        <time>2012-08-14T13:38:19Z</time>
      </trkpt>
      <trkpt lat="48.8324" lon="2.42317">
        <ele>81.52733</ele>
        <time>2012-08-14T13:38:37Z</time>
      </trkpt>
      <trkpt lat="48.83222" lon="2.42319">
        <ele>77.848236</ele>
        <time>2012-08-14T13:38:55Z</time>
      </trkpt>
      <trkpt lat="48.83204" lon="2.42324">
        <ele>81.64745</ele>
        <time>2012-08-14T13:39:09Z</time>
      </trkpt>
      <trkpt lat="48.83186" lon="2.4233">
        <ele>82.4221</ele>
        <time>2012-08-14T13:39:23Z</time>
      </trkpt>
      <trkpt lat="48.83168" lon="2.42333">
        <ele>79.4404</ele>
        <time>2012-08-14T13:39:38Z</time>
      </trkpt>
      <trkpt lat="48.83149" lon="2.42335">
        <ele>79.9617</ele>
        <time>2012-08-14T13:39:54Z</time>
      </trkpt>
      <trkpt lat="48.83132" lon="2.42343">
        <ele>87.70409</ele>
        <time>2012-08-14T13:40:15Z</time>
      </trkpt>
      <trkpt lat="48.83113" lon="2.42343">
        <ele>89.36152</ele>
        <time>2012-08-14T13:40:30Z</time>
      </trkpt>
      <trkpt lat="48.83095" lon="2.42348">
        <ele>89.89627</ele>
        <time>2012-08-14T13:40:45Z</time>
      </trkpt>
      <trkpt lat="48.83077" lon="2.42346">
        <ele>83.939995</ele>
        <time>2012-08-14T13:40:58Z</time>
      </trkpt>
      <trkpt lat="48.83059" lon="2.42356">
        <ele>84.113335</ele>
        <time>2012-08-14T13:41:17Z</time>
      </trkpt>
      <trkpt lat="48.83041" lon="2.42361">
        <ele>87.19738</ele>
        <time>2012-08-14T13:41:33Z</time>
      </trkpt>
      <trkpt lat="48.83023" lon="2.42368">
        <ele>87.973755</ele>
        <time>2012-08-14T13:41:47Z</time>
      </trkpt>
      <trkpt lat="48.83005" lon="2.42365">
        <ele>89.94191</ele>
        <time>2012-08-14T13:42:09Z</time>
      </trkpt>
      <trkpt lat="48.82987" lon="2.42367">
        <ele>91.822586</ele>
        <time>2012-08-14T13:42:24Z</time>
      </trkpt>
      <trkpt lat="48.82968" lon="2.42369">
        <ele>92.38425</ele>
        <time>2012-08-14T13:42:34Z</time>
      </trkpt>
      <trkpt lat="48.82949" lon="2.42374">
        <ele>92.57121</ele>
        <time>2012-08-14T13:43:19Z</time>
      </trkpt>
      <trkpt lat="48.82932" lon="2.42382">
        <ele>94.650734</ele>
        <time>2012-08-14T13:43:33Z</time>
      </trkpt>
      <trkpt lat="48.82915" lon="2.42393">
        <ele>92.928604</ele>
        <time>2012-08-14T13:43:51Z</time>
      </trkpt>
      <trkpt lat="48.82897" lon="2.42398">
        <ele>96.01034</ele>
        <time>2012-08-14T13:44:13Z</time>
      </trkpt>
      <trkpt lat="48.82883" lon="2.42381">
        <ele>88.5006</ele>
        <time>2012-08-14T13:45:53Z</time>
      </trkpt>
      <trkpt lat="48.82883" lon="2.42353">
        <ele>91.19714</ele>
        <time>2012-08-14T13:46:03Z</time>
      </trkpt>
      <trkpt lat="48.8289" lon="2.42326">
        <ele>88.92396</ele>
        <time>2012-08-14T13:46:21Z</time>
      </trkpt>
      <trkpt lat="48.82894" lon="2.42297">
        <ele>86.88875</ele>
        <time>2012-08-14T13:46:45Z</time>
      </trkpt>
      <trkpt lat="48.82889" lon="2.42269">
        <ele>88.25238</ele>
        <time>2012-08-14T13:47:07Z</time>
      </trkpt>
      <trkpt lat="48.82894" lon="2.42241">
        <ele>90.78353</ele>
        <time>2012-08-14T13:47:20Z</time>
      </trkpt>
      <trkpt lat="48.8289" lon="2.42214">
        <ele>90.05142</ele>
        <time>2012-08-14T13:47:33Z</time>
      </trkpt>
      <trkpt lat="48.82899" lon="2.42189">
        <ele>88.13396</ele>
        <time>2012-08-14T13:47:50Z</time>
      </trkpt>
      <trkpt lat="48.82896" lon="2.42161">
        <ele>87.101845</ele>
        <time>2012-08-14T13:48:01Z</time>
      </trkpt>
      <trkpt lat="48.82895" lon="2.42132">
        <ele>87.38797</ele>
        <time>2012-08-14T13:48:20Z</time>
      </trkpt>
      <trkpt lat="48.82881" lon="2.42112">
        <ele>88.72561</ele>
        <time>2012-08-14T13:48:37Z</time>
      </trkpt>
      <trkpt lat="48.82867" lon="2.42093">
        <ele>89.25158</ele>
        <time>2012-08-14T13:48:49Z</time>
      </trkpt>
      <trkpt lat="48.82855" lon="2.42071">
        <ele>88.362885</ele>
        <time>2012-08-14T13:49:05Z</time>
      </trkpt>
      <trkpt lat="48.82865" lon="2.42048">
        <ele>86.42582</ele>
        <time>2012-08-14T13:49:51Z</time>
      </trkpt>
      <trkpt lat="48.8287" lon="2.42021">
        <ele>85.907364</ele>
        <time>2012-08-14T13:50:06Z</time>
      </trkpt>
      <trkpt lat="48.82872" lon="2.41992">
        <ele>85.41921</ele>
        <time>2012-08-14T13:50:28Z</time>
      </trkpt>
      <trkpt lat="48.82863" lon="2.41968">
        <ele>87.37346</ele>
        <time>2012-08-14T13:50:44Z</time>
      </trkpt>
      <trkpt lat="48.82865" lon="2.41941">
        <ele>91.592606</ele>
        <time>2012-08-14T13:51:19Z</time>
      </trkpt>
      <trkpt lat="48.82882" lon="2.4193">
        <ele>95.121086</ele>
        <time>2012-08-14T13:52:17Z</time>
      </trkpt>
      <trkpt lat="48.82881" lon="2.41902">
        <ele>95.864685</ele>
        <time>2012-08-14T13:52:37Z</time>
      </trkpt>
      <trkpt lat="48.82867" lon="2.41883">
        <ele>91.74443</ele>
        <time>2012-08-14T13:53:01Z</time>
      </trkpt>
      <trkpt lat="48.82854" lon="2.41863">
        <ele>90.66862</ele>
        <time>2012-08-14T13:53:17Z</time>
      </trkpt>
      <trkpt lat="48.8284" lon="2.41845">
        <ele>98.731865</ele>
        <time>2012-08-14T13:53:35Z</time>
      </trkpt>
      <trkpt lat="48.8283" lon="2.41823">
        <ele>98.26275</ele>
        <time>2012-08-14T13:53:50Z</time>
      </trkpt>
      <trkpt lat="48.82827" lon="2.41794">
        <ele>92.28697</ele>
        <time>2012-08-14T13:54:12Z</time>
      </trkpt>
      <trkpt lat="48.82824" lon="2.41765">
        <ele>89.70852</ele>
        <time>2012-08-14T13:54:25Z</time>
      </trkpt>
      <trkpt lat="48.82831" lon="2.41738">
        <ele>91.22091</ele>
        <time>2012-08-14T13:54:57Z</time>
      </trkpt>
      <trkpt lat="48.82839" lon="2.41712">
        <ele>89.32808</ele>
        <time>2012-08-14T13:55:12Z</time>
      </trkpt>
      <trkpt lat="48.82851" lon="2.41688">
        <ele>88.842674</ele>
        <time>2012-08-14T13:55:25Z</time>
      </trkpt>
      <trkpt lat="48.82865" lon="2.41672">
        <ele>86.50291</ele>
        <time>2012-08-14T13:55:39Z</time>
      </trkpt>
      <trkpt lat="48.8288" lon="2.41652">
        <ele>85.82191</ele>
        <time>2012-08-14T13:56:06Z</time>
      </trkpt>
      <trkpt lat="48.82892" lon="2.41631">
        <ele>86.2202</ele>
        <time>2012-08-14T13:56:21Z</time>
      </trkpt>
      <trkpt lat="48.82906" lon="2.41615">
        <ele>86.25794</ele>
        <time>2012-08-14T13:56:36Z</time>
      </trkpt>
      <trkpt lat="48.82918" lon="2.41593">
        <ele>86.43323</ele>
        <time>2012-08-14T13:56:58Z</time>
      </trkpt>
      <trkpt lat="48.82934" lon="2.41577">
        <ele>88.369385</ele>
        <time>2012-08-14T13:57:20Z</time>
      </trkpt>
      <trkpt lat="48.82949" lon="2.41561">
        <ele>90.37274</ele>
        <time>2012-08-14T13:57:46Z</time>
      </trkpt>
      <trkpt lat="48.82962" lon="2.4154">
        <ele>87.981224</ele>
        <time>2012-08-14T13:58:07Z</time>
      </trkpt>
      <trkpt lat="48.82948" lon="2.41521">
        <ele>87.97195</ele>
        <time>2012-08-14T13:58:24Z</time>
      </trkpt>
      <trkpt lat="48.8294" lon="2.41496">
        <ele>88.063675</ele>
        <time>2012-08-14T13:58:57Z</time>
      </trkpt>
      <trkpt lat="48.82942" lon="2.41469">
        <ele>89.309044</ele>
        <time>2012-08-14T13:59:06Z</time>
      </trkpt>
      <trkpt lat="48.82944" lon="2.41441">
        <ele>89.7265</ele>
        <time>2012-08-14T13:59:17Z</time>
      </trkpt>
      <trkpt lat="48.82942" lon="2.41413">
        <ele>91.34626</ele>
        <time>2012-08-14T13:59:47Z</time>
      </trkpt>
      <trkpt lat="48.82951" lon="2.41389">
        <ele>93.88417</ele>
        <time>2012-08-14T14:00:38Z</time>
      </trkpt>
      <trkpt lat="48.82959" lon="2.41364">
        <ele>93.89365</ele>
        <time>2012-08-14T14:00:58Z</time>
      </trkpt>
      <trkpt lat="48.82968" lon="2.4134">
        <ele>89.29151</ele>
        <time>2012-08-14T14:01:26Z</time>
      </trkpt>
      <trkpt lat="48.82974" lon="2.41314">
        <ele>88.20963</ele>
        <time>2012-08-14T14:01:39Z</time>
      </trkpt>
      <trkpt lat="48.82978" lon="2.41284">
        <ele>87.29278</ele>
        <time>2012-08-14T14:01:49Z</time>
      </trkpt>
      <trkpt lat="48.82984" lon="2.41258">
        <ele>89.92028</ele>
        <time>2012-08-14T14:01:59Z</time>
      </trkpt>
      <trkpt lat="48.82997" lon="2.41235">
        <ele>92.45266</ele>
        <time>2012-08-14T14:02:18Z</time>
      </trkpt>
      <trkpt lat="48.83004" lon="2.4121">
        <ele>91.49086</ele>
        <time>2012-08-14T14:02:36Z</time>
      </trkpt>
      <trkpt lat="48.83014" lon="2.41187">
        <ele>91.16577</ele>
        <time>2012-08-14T14:02:58Z</time>
      </trkpt>
      <trkpt lat="48.83022" lon="2.41162">
        <ele>95.56087</ele>
        <time>2012-08-14T14:03:17Z</time>
      </trkpt>
      <trkpt lat="48.83033" lon="2.41139">
        <ele>94.96126</ele>
        <time>2012-08-14T14:03:32Z</time>
      </trkpt>
      <trkpt lat="48.83044" lon="2.41117">
        <ele>95.63293</ele>
        <time>2012-08-14T14:03:46Z</time>
      </trkpt>
      <trkpt lat="48.83057" lon="2.41097">
        <ele>95.74724</ele>
        <time>2012-08-14T14:04:04Z</time>
      </trkpt>
      <trkpt lat="48.83063" lon="2.41071">
        <ele>93.4552</ele>
        <time>2012-08-14T14:04:18Z</time>
      </trkpt>
      <trkpt lat="48.83072" lon="2.41047">
        <ele>91.94264</ele>
        <time>2012-08-14T14:04:33Z</time>
      </trkpt>
      <trkpt lat="48.83075" lon="2.41019">
        <ele>91.39631</ele>
        <time>2012-08-14T14:04:49Z</time>
      </trkpt>
      <trkpt lat="48.83076" lon="2.40992">
        <ele>92.080345</ele>
        <time>2012-08-14T14:05:07Z</time>
      </trkpt>
      <trkpt lat="48.83077" lon="2.40963">
        <ele>91.05477</ele>
        <time>2012-08-14T14:05:30Z</time>
      </trkpt>
      <trkpt lat="48.83075" lon="2.40934">
        <ele>91.744255</ele>
        <time>2012-08-14T14:05:42Z</time>
      </trkpt>
      <trkpt lat="48.83086" lon="2.40912">
        <ele>94.61931</ele>
        <time>2012-08-14T14:06:13Z</time>
      </trkpt>
      <trkpt lat="48.83099" lon="2.40892">
        <ele>95.73565</ele>
        <time>2012-08-14T14:06:27Z</time>
      </trkpt>
      <trkpt lat="48.83115" lon="2.40879">
        <ele>94.42982</ele>
        <time>2012-08-14T14:06:47Z</time>
      </trkpt>
      <trkpt lat="48.83128" lon="2.40859">
        <ele>95.351</ele>
        <time>2012-08-14T14:07:02Z</time>
      </trkpt>
      <trkpt lat="48.8314" lon="2.40839">
        <ele>94.85137</ele>
        <time>2012-08-14T14:07:20Z</time>
      </trkpt>
      <trkpt lat="48.83155" lon="2.40825">
        <ele>95.97119</ele>
        <time>2012-08-14T14:07:40Z</time>
      </trkpt>
      <trkpt lat="48.83164" lon="2.40799">
        <ele>94.41547</ele>
        <time>2012-08-14T14:07:59Z</time>
      </trkpt>
      <trkpt lat="48.83171" lon="2.40774">
        <ele>90.74205</ele>
        <time>2012-08-14T14:08:17Z</time>
      </trkpt>
      <trkpt lat="48.83184" lon="2.40754">
        <ele>88.58358</ele>
        <time>2012-08-14T14:09:00Z</time>
      </trkpt>
      <trkpt lat="48.83195" lon="2.40731">
        <ele>91.684456</ele>
        <time>2012-08-14T14:09:12Z</time>
      </trkpt>
      <trkpt lat="48.83204" lon="2.40704">
        <ele>92.56316</ele>
        <time>2012-08-14T14:09:22Z</time>
      </trkpt>
      <trkpt lat="48.83209" lon="2.40677">
        <ele>93.26885</ele>
        <time>2012-08-14T14:09:33Z</time>
      </trkpt>
      <trkpt lat="48.83213" lon="2.4065">
        <ele>92.3533</ele>
        <time>2012-08-14T14:09:47Z</time>
      </trkpt>
      <trkpt lat="48.83218" lon="2.40623">
        <ele>94.01094</ele>
        <time>2012-08-14T14:10:02Z</time>
      </trkpt>
      <trkpt lat="48.83223" lon="2.40594">
        <ele>94.459206</ele>
        <time>2012-08-14T14:10:20Z</time>
      </trkpt>
      <trkpt lat="48.83228" lon="2.40566">
        <ele>99.60243</ele>
        <time>2012-08-14T14:10:34Z</time>
      </trkpt>
      <trkpt lat="48.83232" lon="2.40538">
        <ele>97.2425</ele>
        <time>2012-08-14T14:10:48Z</time>
      </trkpt>
      <trkpt lat="48.83236" lon="2.40511">
        <ele>93.83635</ele>
        <time>2012-08-14T14:11:04Z</time>
      </trkpt>
      <trkpt lat="48.83238" lon="2.40483">
        <ele>93.38695</ele>
        <time>2012-08-14T14:11:21Z</time>
      </trkpt>
      <trkpt lat="48.83239" lon="2.40455">
        <ele>93.333565</ele>
        <time>2012-08-14T14:11:44Z</time>
      </trkpt>
      <trkpt lat="48.83239" lon="2.40428">
        <ele>95.903275</ele>
        <time>2012-08-14T14:12:02Z</time>
      </trkpt>
      <trkpt lat="48.83246" lon="2.40402">
        <ele>97.60163</ele>
        <time>2012-08-14T14:12:16Z</time>
      </trkpt>
      <trkpt lat="48.8325" lon="2.40374">
        <ele>97.716446</ele>
        <time>2012-08-14T14:12:32Z</time>
      </trkpt>
      <trkpt lat="48.83257" lon="2.40348">
        <ele>99.21123</ele>
        <time>2012-08-14T14:12:46Z</time>
      </trkpt>
      <trkpt lat="48.8327" lon="2.40328">
        <ele>106.21863</ele>
        <time>2012-08-14T14:13:04Z</time>
      </trkpt>
      <trkpt lat="48.83287" lon="2.40321">
        <ele>103.18679</ele>
        <time>2012-08-14T14:13:25Z</time>
      </trkpt>
      <trkpt lat="48.83298" lon="2.40298">
        <ele>102.814735</ele>
        <time>2012-08-14T14:13:40Z</time>
      </trkpt>
      <trkpt lat="48.83311" lon="2.40278">
        <ele>96.84215</ele>
        <time>2012-08-14T14:13:58Z</time>
      </trkpt>
      <trkpt lat="48.83326" lon="2.40263">
        <ele>96.04443</ele>
        <time>2012-08-14T14:14:14Z</time>
      </trkpt>
      <trkpt lat="48.83343" lon="2.40251">
        <ele>94.813545</ele>
        <time>2012-08-14T14:14:31Z</time>
      </trkpt>
      <trkpt lat="48.83355" lon="2.4023">
        <ele>91.77215</ele>
        <time>2012-08-14T14:14:47Z</time>
      </trkpt>
      <trkpt lat="48.83353" lon="2.40202">
        <ele>91.10429</ele>
        <time>2012-08-14T14:15:04Z</time>
      </trkpt>
      <trkpt lat="48.83342" lon="2.4018">
        <ele>87.475006</ele>
        <time>2012-08-14T14:15:25Z</time>
      </trkpt>
      <trkpt lat="48.83332" lon="2.40157">
        <ele>94.33282</ele>
        <time>2012-08-14T14:15:41Z</time>
      </trkpt>
      <trkpt lat="48.83327" lon="2.40129">
        <ele>88.98653</ele>
        <time>2012-08-14T14:15:57Z</time>
      </trkpt>
      <trkpt lat="48.83321" lon="2.40103">
        <ele>86.14491</ele>
        <time>2012-08-14T14:16:13Z</time>
      </trkpt>
      <trkpt lat="48.83311" lon="2.4008">
        <ele>84.9737</ele>
        <time>2012-08-14T14:16:26Z</time>
      </trkpt>
      <trkpt lat="48.83292" lon="2.40075">
        <ele>84.78796</ele>
        <time>2012-08-14T14:16:38Z</time>
      </trkpt>
      <trkpt lat="48.83291" lon="2.40047">
        <ele>81.10419</ele>
        <time>2012-08-14T14:16:55Z</time>
      </trkpt>
      <trkpt lat="48.83286" lon="2.4002">
        <ele>85.080505</ele>
        <time>2012-08-14T14:17:09Z</time>
      </trkpt>
      <trkpt lat="48.83275" lon="2.39998">
        <ele>83.77859</ele>
        <time>2012-08-14T14:17:21Z</time>
      </trkpt>
      <trkpt lat="48.83278" lon="2.39972">
        <ele>74.00559</ele>
        <time>2012-08-14T14:17:43Z</time>
      </trkpt>
      <trkpt lat="48.83294" lon="2.39956">
        <ele>76.77868</ele>
        <time>2012-08-14T14:17:58Z</time>
      </trkpt>
      <trkpt lat="48.83303" lon="2.39931">
        <ele>88.31895</ele>
        <time>2012-08-14T14:18:28Z</time>
      </trkpt>
      <trkpt lat="48.8331" lon="2.39905">
        <ele>88.16802</ele>
        <time>2012-08-14T14:18:59Z</time>
      </trkpt>
      <trkpt lat="48.83326" lon="2.3989">
        <ele>85.90385</ele>
        <time>2012-08-14T14:19:37Z</time>
      </trkpt>
      <trkpt lat="48.83343" lon="2.39881">
        <ele>88.92175</ele>
        <time>2012-08-14T14:19:55Z</time>
      </trkpt>
      <trkpt lat="48.83358" lon="2.39865">
        <ele>90.96027</ele>
        <time>2012-08-14T14:20:13Z</time>
      </trkpt>
      <trkpt lat="48.83373" lon="2.39847">
        <ele>93.87315</ele>
        <time>2012-08-14T14:20:32Z</time>
      </trkpt>
      <trkpt lat="48.83387" lon="2.3983">
        <ele>99.00419</ele>
        <time>2012-08-14T14:20:49Z</time>
      </trkpt>
      <trkpt lat="48.83404" lon="2.39816">
        <ele>101.48213</ele>
        <time>2012-08-14T14:21:02Z</time>
      </trkpt>
      <trkpt lat="48.83418" lon="2.39797">
        <ele>100.30313</ele>
        <time>2012-08-14T14:21:15Z</time>
      </trkpt>
      <trkpt lat="48.83421" lon="2.39769">
        <ele>100.02213</ele>
        <time>2012-08-14T14:21:29Z</time>
      </trkpt>
      <trkpt lat="48.83424" lon="2.39741">
        <ele>99.08614</ele>
        <time>2012-08-14T14:21:43Z</time>
      </trkpt>
      <trkpt lat="48.83438" lon="2.39722">
        <ele>89.63033</ele>
        <time>2012-08-14T14:22:24Z</time>
      </trkpt>
      <trkpt lat="48.83458" lon="2.3972">
        <ele>87.21601</ele>
        <time>2012-08-14T14:31:49Z</time>
      </trkpt>
      <trkpt lat="48.83475" lon="2.39713">
        <ele>87.764565</ele>
        <time>2012-08-14T14:31:52Z</time>
      </trkpt>
      <trkpt lat="48.83465" lon="2.39684">
        <ele>87.93688</ele>
        <time>2012-08-14T14:32:00Z</time>
      </trkpt>
      <trkpt lat="48.83447" lon="2.39686">
        <ele>84.245964</ele>
        <time>2012-08-14T14:32:06Z</time>
      </trkpt>
      <trkpt lat="48.83435" lon="2.39706">
        <ele>80.50371</ele>
        <time>2012-08-14T14:32:17Z</time>
      </trkpt>
      <trkpt lat="48.83452" lon="2.39695">
        <ele>79.914955</ele>
        <time>2012-08-14T14:33:54Z</time>
      </trkpt>
      <trkpt lat="48.83468" lon="2.3968">
        <ele>87.19346</ele>
        <time>2012-08-14T14:34:15Z</time>
      </trkpt>
      <trkpt lat="48.83481" lon="2.39661">
        <ele>86.03443</ele>
        <time>2012-08-14T14:34:26Z</time>
      </trkpt>
      <trkpt lat="48.83489" lon="2.39635">
        <ele>88.0134</ele>
        <time>2012-08-14T14:34:42Z</time>
      </trkpt>
      <trkpt lat="48.83503" lon="2.39615">
        <ele>88.258316</ele>
        <time>2012-08-14T14:34:57Z</time>
      </trkpt>
      <trkpt lat="48.83517" lon="2.39596">
        <ele>93.86384</ele>
        <time>2012-08-14T14:35:10Z</time>
      </trkpt>
      <trkpt lat="48.83527" lon="2.39572">
        <ele>96.15083</ele>
        <time>2012-08-14T14:35:24Z</time>
      </trkpt>
      <trkpt lat="48.83538" lon="2.39549">
        <ele>96.56415</ele>
        <time>2012-08-14T14:35:38Z</time>
      </trkpt>
      <trkpt lat="48.8355" lon="2.39529">
        <ele>95.41696</ele>
        <time>2012-08-14T14:35:53Z</time>
      </trkpt>
      <trkpt lat="48.8356" lon="2.39505">
        <ele>87.49916</ele>
        <time>2012-08-14T14:36:07Z</time>
      </trkpt>
      <trkpt lat="48.83565" lon="2.39477">
        <ele>85.18744</ele>
        <time>2012-08-14T14:36:22Z</time>
      </trkpt>
      <trkpt lat="48.83581" lon="2.39461">
        <ele>87.42784</ele>
        <time>2012-08-14T14:36:40Z</time>
      </trkpt>
      <trkpt lat="48.83593" lon="2.39441">
        <ele>88.22128</ele>
        <time>2012-08-14T14:36:56Z</time>
      </trkpt>
      <trkpt lat="48.83597" lon="2.39414">
        <ele>86.39604</ele>
        <time>2012-08-14T14:37:13Z</time>
      </trkpt>
      <trkpt lat="48.83609" lon="2.39393">
        <ele>86.56859</ele>
        <time>2012-08-14T14:37:24Z</time>
      </trkpt>
      <trkpt lat="48.83618" lon="2.39369">
        <ele>84.98854</ele>
        <time>2012-08-14T14:37:46Z</time>
      </trkpt>
      <trkpt lat="48.8363" lon="2.39347">
        <ele>90.982735</ele>
        <time>2012-08-14T14:38:00Z</time>
      </trkpt>
      <trkpt lat="48.83639" lon="2.39322">
        <ele>93.97472</ele>
        <time>2012-08-14T14:38:09Z</time>
      </trkpt>
      <trkpt lat="48.83657" lon="2.39318">
        <ele>80.7574</ele>
        <time>2012-08-14T14:38:40Z</time>
      </trkpt>
      <trkpt lat="48.8367" lon="2.39295">
        <ele>82.00245</ele>
        <time>2012-08-14T14:38:48Z</time>
      </trkpt>
      <trkpt lat="48.83686" lon="2.39277">
        <ele>85.61806</ele>
        <time>2012-08-14T14:38:58Z</time>
      </trkpt>
      <trkpt lat="48.83699" lon="2.39258">
        <ele>90.3366</ele>
        <time>2012-08-14T14:39:14Z</time>
      </trkpt>
      <trkpt lat="48.83708" lon="2.39234">
        <ele>90.170685</ele>
        <time>2012-08-14T14:39:35Z</time>
      </trkpt>
      <trkpt lat="48.83716" lon="2.39206">
        <ele>91.16734</ele>
        <time>2012-08-14T14:39:50Z</time>
      </trkpt>
      <trkpt lat="48.83723" lon="2.3918">
        <ele>95.526665</ele>
        <time>2012-08-14T14:39:59Z</time>
      </trkpt>
      <trkpt lat="48.83729" lon="2.39154">
        <ele>102.88023</ele>
        <time>2012-08-14T14:40:13Z</time>
      </trkpt>
      <trkpt lat="48.83719" lon="2.39129">
        <ele>100.870834</ele>
        <time>2012-08-14T14:40:27Z</time>
      </trkpt>
      <trkpt lat="48.83718" lon="2.39101">
        <ele>93.879105</ele>
        <time>2012-08-14T14:40:42Z</time>
      </trkpt>
      <trkpt lat="48.83719" lon="2.39073">
        <ele>91.46258</ele>
        <time>2012-08-14T14:40:56Z</time>
      </trkpt>
      <trkpt lat="48.83714" lon="2.39045">
        <ele>81.29635</ele>
        <time>2012-08-14T14:41:10Z</time>
      </trkpt>
      <trkpt lat="48.8371" lon="2.39017">
        <ele>79.569664</ele>
        <time>2012-08-14T14:41:26Z</time>
      </trkpt>
      <trkpt lat="48.83702" lon="2.38993">
        <ele>85.398224</ele>
        <time>2012-08-14T14:41:58Z</time>
      </trkpt>
      <trkpt lat="48.83706" lon="2.38965">
        <ele>84.92619</ele>
        <time>2012-08-14T14:42:14Z</time>
      </trkpt>
      <trkpt lat="48.83703" lon="2.38936">
        <ele>84.368835</ele>
        <time>2012-08-14T14:42:42Z</time>
      </trkpt>
      <trkpt lat="48.83696" lon="2.38908">
        <ele>84.73652</ele>
        <time>2012-08-14T14:42:48Z</time>
      </trkpt>
      <trkpt lat="48.83692" lon="2.38881">
        <ele>86.35361</ele>
        <time>2012-08-14T14:43:01Z</time>
      </trkpt>
      <trkpt lat="48.8369" lon="2.38851">
        <ele>87.69894</ele>
        <time>2012-08-14T14:43:10Z</time>
      </trkpt>
      <trkpt lat="48.83681" lon="2.38823">
        <ele>92.73194</ele>
        <time>2012-08-14T14:43:16Z</time>
      </trkpt>
      <trkpt lat="48.83667" lon="2.38805">
        <ele>92.84374</ele>
        <time>2012-08-14T14:43:22Z</time>
      </trkpt>
      <trkpt lat="48.83654" lon="2.38785">
        <ele>89.89058</ele>
        <time>2012-08-14T14:43:47Z</time>
      </trkpt>
      <trkpt lat="48.83644" lon="2.38761">
        <ele>88.69653</ele>
        <time>2012-08-14T14:45:17Z</time>
      </trkpt>
      <trkpt lat="48.83635" lon="2.38736">
        <ele>88.963196</ele>
        <time>2012-08-14T14:45:27Z</time>
      </trkpt>
      <trkpt lat="48.8362" lon="2.3872">
        <ele>84.803246</ele>
        <time>2012-08-14T14:45:50Z</time>
      </trkpt>
      <trkpt lat="48.83616" lon="2.38693">
        <ele>91.35399</ele>
        <time>2012-08-14T14:46:06Z</time>
      </trkpt>
      <trkpt lat="48.83609" lon="2.38667">
        <ele>92.18888</ele>
        <time>2012-08-14T14:46:14Z</time>
      </trkpt>
      <trkpt lat="48.83591" lon="2.38657">
        <ele>92.920204</ele>
        <time>2012-08-14T14:46:24Z</time>
      </trkpt>
      <trkpt lat="48.83575" lon="2.3867">
        <ele>103.54911</ele>
        <time>2012-08-14T14:47:29Z</time>
      </trkpt>
      <trkpt lat="48.83565" lon="2.38694">
        <ele>105.275856</ele>
        <time>2012-08-14T14:47:38Z</time>
      </trkpt>
      <trkpt lat="48.83552" lon="2.38714">
        <ele>96.12733</ele>
        <time>2012-08-14T14:47:45Z</time>
      </trkpt>
      <trkpt lat="48.83538" lon="2.38734">
        <ele>81.10767</ele>
        <time>2012-08-14T14:48:10Z</time>
      </trkpt>
      <trkpt lat="48.83521" lon="2.38724">
        <ele>84.28971</ele>
        <time>2012-08-14T14:48:20Z</time>
      </trkpt>
      <trkpt lat="48.83505" lon="2.38707">
        <ele>90.85049</ele>
        <time>2012-08-14T14:48:36Z</time>
      </trkpt>
      <trkpt lat="48.83488" lon="2.38695">
        <ele>91.30332</ele>
        <time>2012-08-14T14:48:47Z</time>
      </trkpt>
      <trkpt lat="48.83471" lon="2.38681">
        <ele>90.56418</ele>
        <time>2012-08-14T14:48:58Z</time>
      </trkpt>
      <trkpt lat="48.83458" lon="2.3866">
        <ele>93.77667</ele>
        <time>2012-08-14T14:49:10Z</time>
      </trkpt>
      <trkpt lat="48.83469" lon="2.38637">
        <ele>90.372215</ele>
        <time>2012-08-14T14:49:25Z</time>
      </trkpt>
      <trkpt lat="48.83451" lon="2.38633">
        <ele>81.19025</ele>
        <time>2012-08-14T14:49:51Z</time>
      </trkpt>
      <trkpt lat="48.83436" lon="2.38648">
        <ele>87.28748</ele>
        <time>2012-08-14T14:50:05Z</time>
      </trkpt>
      <trkpt lat="48.83426" lon="2.38671">
        <ele>95.236435</ele>
        <time>2012-08-14T14:50:29Z</time>
      </trkpt>
      <trkpt lat="48.83408" lon="2.38672">
        <ele>95.071594</ele>
        <time>2012-08-14T14:50:43Z</time>
      </trkpt>
      <trkpt lat="48.83389" lon="2.38664">
        <ele>92.64827</ele>
        <time>2012-08-14T14:50:51Z</time>
      </trkpt>
      <trkpt lat="48.83374" lon="2.38649">
        <ele>90.602104</ele>
        <time>2012-08-14T14:51:04Z</time>
      </trkpt>
      <trkpt lat="48.83361" lon="2.3863">
        <ele>91.14777</ele>
        <time>2012-08-14T14:51:26Z</time>
      </trkpt>
      <trkpt lat="48.83343" lon="2.38643">
        <ele>79.248726</ele>
        <time>2012-08-14T14:52:11Z</time>
      </trkpt>
      <trkpt lat="48.83328" lon="2.38658">
        <ele>75.89506</ele>
        <time>2012-08-14T14:53:04Z</time>
      </trkpt>
      <trkpt lat="48.83341" lon="2.38638">
        <ele>82.59567</ele>
        <time>2012-08-14T14:54:37Z</time>
      </trkpt>
      <trkpt lat="48.83356" lon="2.38621">
        <ele>87.963524</ele>
        <time>2012-08-14T14:54:47Z</time>
      </trkpt>
      <trkpt lat="48.83339" lon="2.38612">
        <ele>83.97893</ele>
        <time>2012-08-14T14:55:11Z</time>
      </trkpt>
      <trkpt lat="48.83327" lon="2.3859">
        <ele>84.11123</ele>
        <time>2012-08-14T15:02:43Z</time>
      </trkpt>
      <trkpt lat="48.83328" lon="2.38562">
        <ele>81.147</ele>
        <time>2012-08-14T15:03:04Z</time>
      </trkpt>
      <trkpt lat="48.83332" lon="2.38535">
        <ele>78.04897</ele>
        <time>2012-08-14T15:03:19Z</time>
      </trkpt>
      <trkpt lat="48.83344" lon="2.38514">
        <ele>76.42306</ele>
        <time>2012-08-14T15:03:36Z</time>
      </trkpt>
      <trkpt lat="48.83357" lon="2.38492">
        <ele>76.741234</ele>
        <time>2012-08-14T15:04:07Z</time>
      </trkpt>
      <trkpt lat="48.83369" lon="2.38471">
        <ele>79.946556</ele>
        <time>2012-08-14T15:04:27Z</time>
      </trkpt>
      <trkpt lat="48.83368" lon="2.38443">
        <ele>77.00894</ele>
        <time>2012-08-14T15:04:46Z</time>
      </trkpt>
      <trkpt lat="48.83356" lon="2.38422">
        <ele>69.27793</ele>
        <time>2012-08-14T15:05:01Z</time>
      </trkpt>
      <trkpt lat="48.83374" lon="2.38415">
        <ele>69.1285</ele>
        <time>2012-08-14T15:05:30Z</time>
      </trkpt>
      <trkpt lat="48.83389" lon="2.38399">
        <ele>68.969315</ele>
        <time>2012-08-14T15:05:40Z</time>
      </trkpt>
      <trkpt lat="48.83405" lon="2.38387">
        <ele>68.69506</ele>
        <time>2012-08-14T15:05:55Z</time>
      </trkpt>
      <trkpt lat="48.83418" lon="2.38368">
        <ele>75.20699</ele>
        <time>2012-08-14T15:06:25Z</time>
      </trkpt>
      <trkpt lat="48.83434" lon="2.38353">
        <ele>75.10783</ele>
        <time>2012-08-14T15:06:46Z</time>
      </trkpt>
      <trkpt lat="48.83449" lon="2.38337">
        <ele>78.12643</ele>
        <time>2012-08-14T15:07:08Z</time>
      </trkpt>
      <trkpt lat="48.83463" lon="2.3832">
        <ele>78.3689</ele>
        <time>2012-08-14T15:07:26Z</time>
      </trkpt>
      <trkpt lat="48.83475" lon="2.38298">
        <ele>82.396866</ele>
        <time>2012-08-14T15:08:10Z</time>
      </trkpt>
      <trkpt lat="48.8349" lon="2.38282">
        <ele>82.700775</ele>
        <time>2012-08-14T15:08:19Z</time>
      </trkpt>
      <trkpt lat="48.83504" lon="2.38264">
        <ele>79.39532</ele>
        <time>2012-08-14T15:08:34Z</time>
      </trkpt>
      <trkpt lat="48.83519" lon="2.38248">
        <ele>78.99458</ele>
        <time>2012-08-14T15:08:48Z</time>
      </trkpt>
      <trkpt lat="48.83533" lon="2.3823">
        <ele>76.94835</ele>
        <time>2012-08-14T15:09:04Z</time>
      </trkpt>
      <trkpt lat="48.83549" lon="2.38215">
        <ele>76.71495</ele>
        <time>2012-08-14T15:09:24Z</time>
      </trkpt>
      <trkpt lat="48.83561" lon="2.38193">
        <ele>78.316055</ele>
        <time>2012-08-14T15:09:43Z</time>
      </trkpt>
      <trkpt lat="48.83572" lon="2.3817">
        <ele>73.42431</ele>
        <time>2012-08-14T15:10:15Z</time>
      </trkpt>
      <trkpt lat="48.83588" lon="2.38155">
        <ele>74.32088</ele>
        <time>2012-08-14T15:10:24Z</time>
      </trkpt>
      <trkpt lat="48.83605" lon="2.38144">
        <ele>80.495804</ele>
        <time>2012-08-14T15:10:37Z</time>
      </trkpt>
      <trkpt lat="48.8362" lon="2.38126">
        <ele>76.76607</ele>
        <time>2012-08-14T15:10:49Z</time>
      </trkpt>
      <trkpt lat="48.83633" lon="2.38107">
        <ele>80.20076</ele>
        <time>2012-08-14T15:11:11Z</time>
      </trkpt>
      <trkpt lat="48.83646" lon="2.38086">
        <ele>77.94675</ele>
        <time>2012-08-14T15:11:27Z</time>
      </trkpt>
      <trkpt lat="48.83663" lon="2.38073">
        <ele>77.41707</ele>
        <time>2012-08-14T15:11:44Z</time>
      </trkpt>
      <trkpt lat="48.83678" lon="2.38056">
        <ele>74.79139</ele>
        <time>2012-08-14T15:11:58Z</time>
      </trkpt>
      <trkpt lat="48.83691" lon="2.38037">
        <ele>71.377655</ele>
        <time>2012-08-14T15:12:11Z</time>
      </trkpt>
      <trkpt lat="48.83704" lon="2.38018">
        <ele>69.79092</ele>
        <time>2012-08-14T15:12:34Z</time>
      </trkpt>
      <trkpt lat="48.83718" lon="2.37998">
        <ele>64.966545</ele>
        <time>2012-08-14T15:12:47Z</time>
      </trkpt>
      <trkpt lat="48.8373" lon="2.37978">
        <ele>59.156475</ele>
        <time>2012-08-14T15:13:19Z</time>
      </trkpt>
      <trkpt lat="48.83738" lon="2.37952">
        <ele>56.936512</ele>
        <time>2012-08-14T15:13:31Z</time>
      </trkpt>
      <trkpt lat="48.83754" lon="2.37938">
        <ele>58.729218</ele>
        <time>2012-08-14T15:13:45Z</time>
      </trkpt>
      <trkpt lat="48.83773" lon="2.37936">
        <ele>62.36326</ele>
        <time>2012-08-14T15:14:00Z</time>
      </trkpt>
      <trkpt lat="48.8379" lon="2.37929">
        <ele>67.3276</ele>
        <time>2012-08-14T15:14:35Z</time>
      </trkpt>
      <trkpt lat="48.83807" lon="2.37917">
        <ele>74.06111</ele>
        <time>2012-08-14T15:14:47Z</time>
      </trkpt>
      <trkpt lat="48.83796" lon="2.37895">
        <ele>81.89358</ele>
        <time>2012-08-14T15:15:08Z</time>
      </trkpt>
      <trkpt lat="48.83787" lon="2.37871">
        <ele>75.757706</ele>
        <time>2012-08-14T15:15:40Z</time>
      </trkpt>
      <trkpt lat="48.83791" lon="2.3784">
        <ele>78.10206</ele>
        <time>2012-08-14T15:15:59Z</time>
      </trkpt>
      <trkpt lat="48.83787" lon="2.37813">
        <ele>80.47692</ele>
        <time>2012-08-14T15:16:11Z</time>
      </trkpt>
      <trkpt lat="48.83791" lon="2.37787">
        <ele>77.194466</ele>
        <time>2012-08-14T15:16:30Z</time>
      </trkpt>
      <trkpt lat="48.83807" lon="2.37774">
        <ele>68.9561</ele>
        <time>2012-08-14T15:17:01Z</time>
      </trkpt>
      <trkpt lat="48.83825" lon="2.37763">
        <ele>67.3815</ele>
        <time>2012-08-14T15:17:33Z</time>
      </trkpt>
      <trkpt lat="48.83842" lon="2.37751">
        <ele>70.35636</ele>
        <time>2012-08-14T15:17:41Z</time>
      </trkpt>
      <trkpt lat="48.83859" lon="2.37744">
        <ele>75.81144</ele>
        <time>2012-08-14T15:17:52Z</time>
      </trkpt>
      <trkpt lat="48.83877" lon="2.37737">
        <ele>82.75247</ele>
        <time>2012-08-14T15:18:06Z</time>
      </trkpt>
      <trkpt lat="48.83885" lon="2.37762">
        <ele>84.10755</ele>
        <time>2012-08-14T15:18:45Z</time>
      </trkpt>
      <trkpt lat="48.83899" lon="2.37782">
        <ele>84.9459</ele>
        <time>2012-08-14T15:18:54Z</time>
      </trkpt>
      <trkpt lat="48.83911" lon="2.37806">
        <ele>79.181404</ele>
        <time>2012-08-14T15:19:07Z</time>
      </trkpt>
      <trkpt lat="48.83925" lon="2.37823">
        <ele>77.75427</ele>
        <time>2012-08-14T15:19:18Z</time>
      </trkpt>
      <trkpt lat="48.83937" lon="2.37844">
        <ele>75.05638</ele>
        <time>2012-08-14T15:19:34Z</time>
      </trkpt>
      <trkpt lat="48.83954" lon="2.37858">
        <ele>80.479614</ele>
        <time>2012-08-14T15:19:52Z</time>
      </trkpt>
    </trkseg>
  </trk>
</gpx>